2014 Zoo Zoom 5K 5K Run/Walk

2014 Zoo Zoom 5K

Overall Finish List

April 13, 2014


Results By Capital Road Race Management

5K Run/Walk

Place Name City Bib No Age Gender Age Group Chip Time Gun Time Chip Diff Pace
1 Camron Shahmirzadi Folsom CA 2185 24 M 1 19-29 15:44.5 15:44.6 0:00.1 5:05/M
2 Evan Cross Sacramento CA 2095 16 M 1 16-18 16:05.8 16:05.8 0:00.0 5:11/M
3 Jedidiah Soliz Carmicheal CA 1820 31 M 1 30-39 16:09.7 16:09.7 0:00.0 5:13/M
4 Iain Mickle Sacramento CA 2166 53 M 1 50-59 16:12.4 16:12.4 5:14/M
5 Brian Hastings Oroville CA 1258 14 M 1 13-15 16:15.1 16:15.1 5:15/M
6 Jesse Barragan Folsom CA 2152 36 M 2 30-39 16:18.6 16:19.0 0:00.3 5:15/M
7 Chris Dewitt Agoura Hills CA 2169 34 M 3 30-39 16:20.0 16:20.9 0:00.8 5:16/M
8 Ed Brooks Folsom CA 2046 42 M 1 40-49 16:24.6 16:25.0 0:00.3 5:17/M
9 Galen Farris Sacramento CA 1135 32 M 4 30-39 16:25.1 16:25.2 0:00.1 5:18/M
10 Patrick Williams Sacramento CA 2165 26 M 2 19-29 17:12.0 17:12.7 0:00.6 5:33/M
11 John Couillard Orangevale CA 1029 32 M 5 30-39 17:18.8 17:19.5 0:00.7 5:35/M
12 Roger Cross Sacramento CA 2096 48 M 2 40-49 17:19.9 17:20.5 0:00.6 5:35/M
13 Bryan Languasco Elk Grove CA 1411 18 M 2 16-18 17:34.5 17:35.0 0:00.4 5:40/M
14 Steve Hussey Gold River CA 2183 48 M 3 40-49 17:38.0 17:38.7 0:00.6 5:41/M
15 Robert Grove Folsom CA 2156 46 M 4 40-49 17:45.2 17:45.4 0:00.1 5:44/M
16 Raul Beltran Rancho Cordova CA 878 32 M 6 30-39 17:51.0 17:52.0 0:01.0 5:45/M
17 Ryan Ioanidis Sacramento CA 1334 13 M 2 13-15 17:53.0 17:54.3 0:01.3 5:46/M
18 Brian Olson Elk Grove CA 1612 39 M 7 30-39 17:54.0 17:55.7 0:01.7 5:46/M
19 Terry Baucom El Dorado Hills CA 870 57 M 2 50-59 17:59.1 17:59.7 0:00.6 5:48/M
20 Austin Mellick Elk Grofe CA 2014 13 M 3 13-15 18:00.5 18:00.6 0:00.0 5:48/M
21 Ernie Felix Sacramento CA 2048 48 M 5 40-49 18:08.4 18:09.2 0:00.8 5:51/M
22 John Blue Sacramento CA 2155 50 M 3 50-59 18:15.6 18:16.4 0:00.7 5:53/M
23 Bob Hastings Oroville CA 1257 56 M 4 50-59 18:17.2 18:17.2 5:54/M
24 Miles Worthen Sacramento CA 2013 12 M 1 1-12 18:38.4 18:38.6 0:00.1 6:01/M
25 Marc Bacsafra Sacramento CA 2136 38 M 8 30-39 18:46.5 18:46.5 6:03/M
26 Patrick Wiseman Sacramento CA 1968 14 M 4 13-15 18:53.7 18:54.2 0:00.5 6:05/M
27 Kidianga Tshiunza Sacramento CA 2087 44 M 6 40-49 18:58.1 19:01.5 0:03.4 6:07/M
28 Mike Iacopi Walnut Creek CA 1330 32 M 9 30-39 18:58.6 18:59.7 0:01.1 6:07/M
29 John Painting Sacramento CA 1616 53 M 5 50-59 19:00.5 19:03.3 0:02.8 6:08/M
30 Heather Tiska Sacramento CA 2127 39 F 1 30-39 19:03.8 19:05.3 0:01.4 6:09/M
31 Greg Mandler Elk Grove CA 1480 50 M 6 50-59 19:04.5 19:06.3 0:01.8 6:09/M
32 Brian Hayden-Brewer Sacramento CA 1266 14 M 5 13-15 19:10.1 19:10.4 0:00.2 6:11/M
33 Cody Moraga Rocklin CA 2200 22 M 3 19-29 19:12.4 19:12.5 0:00.1 6:12/M
34 Natalie Harper Elk Grove CA 1247 11 F 1 1-12 19:19.7 19:19.7 6:14/M
35 Ryan Bradley Sacramento CA 910 12 M 2 1-12 19:29.3 19:29.3 0:00.0 6:17/M
36 David Collar Sacramento CA 1014 35 M 10 30-39 19:30.2 19:33.0 0:02.8 6:17/M
37 Eric Lambing Sacramento CA 1408 21 M 4 19-29 19:40.9 19:50.9 0:10.0 6:21/M
38 Tamara Torkakson Sacramento CA 2121 27 F 1 19-29 19:42.6 19:43.9 0:01.3 6:21/M
39 Luke Petersen Davis CA 1643 24 M 5 19-29 19:44.7 19:53.9 0:09.2 6:22/M
40 Cynthia Ortiz Sacramento CA 1614 44 F 1 40-49 19:50.6 19:53.0 0:02.3 6:24/M
41 Alan Anzai Carmichael CA 840 47 M 7 40-49 19:52.3 19:54.1 0:01.8 6:25/M
42 Jack Butler Sacramento CA 951 9 M 3 1-12 20:06.7 20:08.7 0:02.0 6:29/M
43 Joe Sterling Sacramento CA 1836 52 M 7 50-59 20:15.6 20:15.6 6:32/M
44 Deb Templeton Carmichael CA 1864 41 F 2 40-49 20:18.0 20:18.6 0:00.5 6:33/M
45 Ron Souza Citrus Heights CA 1824 60 M 1 60-69 20:18.4 20:19.4 0:01.0 6:33/M
46 Ward Brady Sacramento CA 912 36 M 11 30-39 20:19.4 20:21.7 0:02.3 6:33/M
47 Caelin Sutch Carmichael CA 2188 11 M 4 1-12 20:22.6 20:23.4 0:00.7 6:34/M
48 Abi McLean Sacramento CA 1514 11 F 2 1-12 20:23.6 20:24.5 0:00.9 6:35/M
49 Autumn Outslay Folsom CA 1615 35 F 2 30-39 20:29.1 20:32.9 0:03.7 6:36/M
50 Jack Pallesen Carmichael CA 1617 12 M 5 1-12 20:38.2 20:41.2 0:02.9 6:39/M
51 Jeanette Rowe Elk Grove CA 2163 24 F 2 19-29 20:40.7 20:43.9 0:03.2 6:40/M
52 Simon Mitchell Sacramento CA 2099 12 M 6 1-12 20:47.4 20:49.0 0:01.6 6:42/M
53 William Hightower Elk Grove CA 2135 48 M 8 40-49 20:50.9 20:52.6 0:01.6 6:43/M
54 Ethan Borg Sacramento CA 899 13 M 6 13-15 20:59.8 21:02.0 0:02.1 6:46/M
55 Jennifer Delucchi Elk Grove CA 1071 35 F 3 30-39 21:01.7 21:02.9 0:01.2 6:47/M
56 Joey Caouette Fair Oaks CA 965 16 M 3 16-18 21:02.1 21:28.1 0:25.9 6:47/M
57 Kenneth Huston Mather CA 1327 14 M 7 13-15 21:05.3 21:05.7 0:00.3 6:48/M
58 Patrick Youmans Sacramento CA 2197 13 M 8 13-15 21:08.5 21:08.5 6:49/M
59 Terry Anderson Folsom CA 836 40 F 3 40-49 21:11.4 21:13.0 0:01.5 6:50/M
60 Steve O'Donnell Folsom CA 1609 36 M 12 30-39 21:11.4 21:13.2 0:01.7 6:50/M
61 Dylan Sewell Sacramento CA 1777 13 M 9 13-15 21:11.7 21:11.7 6:50/M
62 Adam Ferreira North Highlands CA 2150 63 M 2 60-69 21:15.0 21:17.1 0:02.1 6:51/M
63 Samantha Lawler Citrus Heights CA 2143 32 F 4 30-39 21:15.1 21:16.7 0:01.6 6:51/M
64 Tim Nguyen Sacramento CA 1594 15 M 10 13-15 21:16.3 21:16.5 0:00.2 6:52/M
65 Eric Timmons Lathrop CA 1875 33 M 13 30-39 21:16.5 21:20.9 0:04.4 6:52/M
66 Bip Kaushal Roseville CA 2178 42 M 9 40-49 21:16.5 21:19.9 0:03.4 6:52/M
67 Erin Hong Piedmont CA 1317 13 F 1 13-15 21:18.9 21:19.4 0:00.5 6:52/M
68 Xander Reimers Hercules CA 1694 12 M 7 1-12 21:20.6 21:20.8 0:00.2 6:53/M
69 Megan Poon Sacramento CA 2038 12 F 3 1-12 21:25.2 21:27.7 0:02.5 6:55/M
70 Kevin Jordan Elk Grove CA 1359 44 M 10 40-49 21:28.9 21:32.1 0:03.1 6:55/M
71 Malik Smith Auburn CA 1808 44 F 4 40-49 21:31.1 21:35.7 0:04.5 6:56/M
72 Deanna Slaton Auburn CA 1800 32 F 5 30-39 21:32.4 21:36.6 0:04.1 6:57/M
73 Kelly Hood Sacramento CA 2031 23 F 3 19-29 21:37.3 21:41.0 0:03.6 6:58/M
74 Dan Lew Davis CA 1428 41 M 11 40-49 21:40.3 21:44.4 0:04.0 6:59/M
75 Brian Smith Folsom CA 1805 64 M 3 60-69 21:40.5 21:44.3 0:03.8 6:59/M
76 Justine Kanzler Sacramento CA 2213 12 F 4 1-12 21:42.8 21:46.3 0:03.5 7:00/M
77 Joseph Ardron Sonora CA 844 11 M 8 1-12 21:43.1 21:46.1 0:03.0 7:00/M
78 Alexander Bennett Carmichael CA 879 15 M 11 13-15 21:45.4 21:50.7 0:05.3 7:01/M
79 Audrey Durfor Marysville CA 1093 21 F 4 19-29 21:47.6 21:49.3 0:01.7 7:02/M
80 Colleen Buehler Sacramento CA 941 25 F 5 19-29 21:48.4 21:51.8 0:03.4 7:02/M
81 Mark Oamek Woodland CA 1608 38 M 14 30-39 21:50.7 21:53.8 0:03.1 7:03/M
82 Dale Bergstrom Sonora CA 2190 11 M 9 1-12 21:54.5 21:57.3 0:02.8 7:04/M
83 Damon Childs-Poor Sacramento CA 2202 13 M 12 13-15 21:55.5 21:56.2 0:00.6 7:04/M
84 Dave Amos Sacramento CA 826 31 M 15 30-39 22:01.6 22:06.2 0:04.5 7:06/M
85 Gary Campbell Elk Grove CA 963 58 M 8 50-59 22:07.7 22:10.5 0:02.8 7:08/M
86 Dan Smolich Sacramento CA 1810 59 M 9 50-59 22:10.8 22:15.9 0:05.0 7:09/M
87 Michelle Christian Sacramento CA 1000 42 F 5 40-49 22:13.0 22:16.7 0:03.7 7:10/M
88 Jackson Szejda Carmichael CA 1857 11 M 10 1-12 22:33.8 22:36.2 0:02.3 7:16/M
89 Troy Bilaver Sacramento CA 2219 11 M 11 1-12 22:36.0 22:37.3 0:01.2 7:17/M
90 Bob Roth Sacramento CA 1730 38 M 16 30-39 22:36.9 22:41.5 0:04.6 7:17/M
91 John Morgan Folsom CA 1563 56 M 10 50-59 22:39.0 22:45.0 0:06.0 7:18/M
92 Alysson Barnes Sacramento CA 868 8 F 5 1-12 22:44.8 22:49.2 0:04.3 7:20/M
93 Jane Inouye Sacramento CA 1332 53 F 1 50-59 22:46.8 22:50.7 0:03.9 7:21/M
94 Kristy Van Loben Sels Walnut Grove CA 1904 35 F 6 30-39 22:48.0 22:52.9 0:04.8 7:21/M
95 Lisa Pallesen Carmichael CA 1618 46 F 6 40-49 22:48.2 22:52.6 0:04.3 7:21/M
96 Melissa Butler Sacramento CA 953 37 F 7 30-39 22:49.5 22:52.1 0:02.5 7:22/M
97 Justin Van Loben Sels Walnut Grove CA 1903 37 M 17 30-39 22:50.2 22:55.3 0:05.1 7:22/M
98 Elizabeth Levin Elk Grove CA 1427 49 F 7 40-49 22:53.0 22:57.2 0:04.2 7:23/M
99 Bruce Fujimoto Sacramento CA 1163 58 M 11 50-59 22:53.7 22:57.6 0:03.9 7:23/M
100 Jim Rasmussen Sacramento CA 1685 63 M 4 60-69 22:59.8 23:05.0 0:05.1 7:25/M
 
Place Name City Bib No Age Gender Age Group Chip Time Gun Time Chip Diff Pace
101 Garrett Janice El Dorado Hills CA 1344 12 M 12 1-12 23:01.2 23:01.4 0:00.2 7:25/M
102 Gloria Rasmussen Sacramento CA 1684 28 F 6 19-29 23:05.3 23:10.8 0:05.5 7:27/M
103 Cori Eden Woodland CA 2024 26 F 7 19-29 23:05.9 23:12.2 0:06.3 7:27/M
104 Merritt Haswell South Pasadena CA 1259 30 F 8 30-39 23:06.6 23:15.7 0:09.1 7:27/M
105 Andrew Amara Sacramento CA 824 31 M 18 30-39 23:07.1 23:12.8 0:05.7 7:27/M
106 Alexa Borg Sacramento CA 2077 15 F 2 13-15 23:07.8 23:11.0 0:03.1 7:27/M
107 Greg Miller Fair Oaks CA 2125 70 M 1 70-79 23:14.2 23:17.7 0:03.5 7:30/M
108 Stephanie Sheriff Auburn CA 1787 29 F 8 19-29 23:24.8 23:45.6 0:20.7 7:33/M
109 David Cimini Orangevale CA 2184 29 M 6 19-29 23:30.0 23:37.0 0:07.0 7:35/M
110 Juan Ruelas Sacramento CA 1732 20 M 7 19-29 23:33.7 23:39.9 0:06.1 7:36/M
111 Elliott Pollard Woodland CA 1655 29 M 8 19-29 23:34.1 23:40.3 0:06.2 7:36/M
112 Kyle Dressler Sacramento CA 1088 15 M 13 13-15 23:38.8 23:44.6 0:05.8 7:37/M
113 Kristina Spandau Sacramento CA 2061 28 F 9 19-29 23:46.0 23:55.3 0:09.3 7:40/M
114 Kathy Weems Fair Oaks CA 1939 45 F 8 40-49 23:47.8 23:52.5 0:04.6 7:40/M
115 Mark Hicks Fair Oaks CA 1293 56 M 12 50-59 23:48.3 23:52.7 0:04.4 7:41/M
116 Sarah Tomlinson Sacramento CA 1881 13 F 3 13-15 23:50.1 23:55.5 0:05.4 7:41/M
117 Naomi Alba Sacramento CA 813 11 F 6 1-12 23:51.4 23:51.4 7:42/M
118 Ronald Ri'Chard Elk Grove CA 1705 59 M 13 50-59 23:52.4 23:56.3 0:03.8 7:42/M
119 Dan Wheeler Grass Valley CA 1945 22 M 9 19-29 23:54.1 24:02.0 0:07.9 7:43/M
120 Glen Wheeler, Jr Grass Valley CA 1947 26 M 10 19-29 23:54.6 24:01.9 0:07.3 7:43/M
121 Scott Whiting Orangevale CA 2003 39 M 19 30-39 23:54.8 24:01.0 0:06.2 7:43/M
122 Edward Harris Sacramento CA 1248 55 M 14 50-59 23:55.1 23:59.5 0:04.3 7:43/M
123 Nicholas Lemke Sacramento CA 1422 13 M 14 13-15 23:55.3 23:57.0 0:01.6 7:43/M
124 Joshua Abitz Rancho Cordova CA 807 12 M 13 1-12 23:57.4 23:58.8 0:01.4 7:44/M
125 Maya Barragan Folsom CA 2151 11 F 7 1-12 24:02.3 24:12.8 0:10.4 7:45/M
126 Hayley Hom Sacramento CA 2020 13 F 4 13-15 24:03.0 24:06.3 0:03.2 7:45/M
127 Melissa Chordas Davis CA 999 30 F 9 30-39 24:04.1 24:10.5 0:06.4 7:46/M
128 Jenna Waki Sacramento CA 2037 12 F 8 1-12 24:04.9 24:08.0 0:03.0 7:46/M
129 Jake Austin Sacramento CA 856 13 M 15 13-15 24:07.0 24:08.8 0:01.7 7:47/M
130 Anne Marder Sacramento CA 2192 57 F 2 50-59 24:14.0 24:18.0 0:03.9 7:49/M
131 Eric Anderson Roseville CA 832 33 M 20 30-39 24:18.9 24:25.7 0:06.7 7:50/M
132 Jennifer Austin Citrus Heights CA 857 30 F 10 30-39 24:19.4 24:29.9 0:10.5 7:51/M
133 Kathleen Miles Davis CA 1536 24 F 10 19-29 24:27.0 24:36.5 0:09.4 7:53/M
134 Christy Mizer Orangevale CA 1550 38 F 11 30-39 24:28.6 24:37.5 0:08.8 7:54/M
135 Kevin Dressler Sacramento CA 1087 14 M 16 13-15 24:40.5 24:46.5 0:06.0 7:57/M
136 Andrea Castro Sacramento CA 2193 13 F 5 13-15 24:42.7 24:52.4 0:09.7 7:58/M
137 Caitlyn Butler Sacramento CA 949 14 F 6 13-15 24:42.9 24:45.8 0:02.9 7:58/M
138 Jonathan Jackson Roseville CA 2132 13 M 17 13-15 24:43.0 24:45.4 0:02.4 7:58/M
139 Jordan Rahe Carmichael CA 2211 14 M 18 13-15 24:46.8 24:49.3 0:02.5 7:59/M
140 Owen Bister Sacramento CA 890 13 M 19 13-15 24:47.0 24:50.1 0:03.0 8:00/M
141 Juan Arguello Sacramento CA 2234 13 M 20 13-15 24:47.0 24:50.1 0:03.0 8:00/M
142 Mikaela Blangeres Antelope CA 2173 14 F 7 13-15 24:48.1 24:52.9 0:04.8 8:00/M
143 Nicholas Ifurung Sacramento CA 1331 34 M 21 30-39 24:50.1 24:54.1 0:04.0 8:01/M
144 Mugita Kurosaki Sacramento CA 1397 12 M 14 1-12 24:50.2 24:56.8 0:06.6 8:01/M
145 Maggie Murrell Sacramento CA 1580 14 F 8 13-15 24:51.9 24:54.7 0:02.7 8:01/M
146 Patrick Blohm Auburn CA 2168 18 M 4 16-18 24:52.1 25:11.5 0:19.4 8:01/M
147 Michelle Tarter Sacramento CA 2101 37 F 12 30-39 24:52.8 24:59.0 0:06.2 8:01/M
148 Caitlin Scott Elk Grove CA 1773 24 F 11 19-29 24:53.1 25:08.3 0:15.1 8:02/M
149 Stu Wiseman Sacramento CA 1969 46 M 12 40-49 24:53.5 24:58.6 0:05.0 8:02/M
150 Megan Bruce Antelope CA 938 15 F 9 13-15 24:56.7 24:59.9 0:03.2 8:03/M
151 August Mitchell Sacramento CA 2100 9 M 15 1-12 24:57.2 25:03.4 0:06.2 8:03/M
152 Ryan Witte 2035 9 M 16 1-12 24:57.5 25:10.0 0:12.4 8:03/M
153 Amanda Rhodes Sacramento CA 1701 28 F 12 19-29 24:57.8 25:07.9 0:10.1 8:03/M
154 Hannah Butler Sacramento CA 950 12 F 9 1-12 24:58.5 25:01.0 0:02.5 8:03/M
155 Matthew Mitchell Sacramento CA 2097 46 M 13 40-49 24:59.6 25:06.1 0:06.4 8:04/M
156 Michelle Herman Gold River CA 1287 30 F 13 30-39 25:02.3 25:08.0 0:05.7 8:05/M
157 Peter Sax Carmichael CA 1755 10 M 17 1-12 25:02.6 25:15.2 0:12.6 8:05/M
158 Lori Monaco Woodland CA 2023 55 F 3 50-59 25:05.6 25:12.0 0:06.4 8:05/M
159 Alvaro Arroyo West Sacramento CA 851 48 M 14 40-49 25:07.0 25:12.8 0:05.7 8:06/M
160 Isabella Sharp Sacramento CA 1779 9 F 10 1-12 25:09.1 25:12.8 0:03.7 8:07/M
161 Matthew Parker Grass Valley CA 1622 29 M 11 19-29 25:11.4 25:19.8 0:08.3 8:07/M
162 Angel Rader Camino CA 2158 45 F 9 40-49 25:12.0 25:21.5 0:09.5 8:08/M
163 Chad Gerlach Sacramento CA 2753 40 M 15 40-49 25:14.2 25:23.9 0:09.7 8:08/M
164 Jordan Power Davis CA 1662 23 F 13 19-29 25:14.4 25:24.4 0:10.0 8:08/M
165 John P. Sullivan Sacramento CA 1850 14 M 21 13-15 25:18.6 25:19.9 0:01.3 8:10/M
166 Christian Hill Sacramento CA 2072 14 M 22 13-15 25:22.0 25:23.2 0:01.2 8:11/M
167 Summer Mohammad Sacramento CA 1552 14 F 10 13-15 25:25.6 25:29.7 0:04.0 8:12/M
168 Doug Wood Pilot Hill CA 1978 54 M 15 50-59 25:26.1 25:36.0 0:09.9 8:12/M
169 Christopher McLaughlin Sacramento CA 1512 13 M 23 13-15 25:27.0 25:31.4 0:04.4 8:13/M
170 Jody Cooperman Sacramento CA 2073 51 F 4 50-59 25:35.4 25:42.5 0:07.1 8:15/M
171 Anna Fukuhara Sacramento CA 1165 13 F 11 13-15 25:36.0 25:40.6 0:04.6 8:15/M
172 Karyn Wood Pilot Hill CA 1980 53 F 5 50-59 25:42.4 25:53.1 0:10.7 8:17/M
173 Breanna Brooks Folsom CA 2047 14 F 12 13-15 25:48.6 25:58.2 0:09.6 8:19/M
174 Cheryl Carpi West Sacramento CA 971 47 F 10 40-49 25:57.7 26:05.3 0:07.6 8:22/M
175 Matthew Henderson Sacramento CA 1276 21 M 12 19-29 26:01.4 26:21.6 0:20.2 8:24/M
176 Katie Miller Sacramento CA 2198 35 F 14 30-39 26:02.4 26:09.6 0:07.1 8:24/M
177 Liz Grove Folsom CA 2157 47 F 11 40-49 26:06.7 26:13.6 0:06.8 8:25/M
178 Tony Walters Sacramento CA 1925 55 M 16 50-59 26:07.3 26:27.1 0:19.8 8:25/M
179 Jacqueline Armand Rocklin CA 846 11 F 11 1-12 26:08.5 26:13.8 0:05.3 8:26/M
180 Milo Reyes Sacramento CA 1699 37 M 22 30-39 26:11.2 26:18.7 0:07.5 8:27/M
181 Edward Herzog Granite Bay CA 1290 62 M 5 60-69 26:11.3 26:19.6 0:08.3 8:27/M
182 Brandi Stafford West Sacramento CA 1828 22 F 14 19-29 26:12.7 26:23.0 0:10.2 8:27/M
183 Jamie Henson Sacramento CA 1280 33 F 15 30-39 26:12.9 26:17.5 0:04.6 8:27/M
184 Lauren Sible Sacramento CA 1792 30 F 16 30-39 26:14.7 26:20.8 0:06.0 8:28/M
185 Yvonne Nickel West Sacramento CA 2034 65 F 1 60-69 26:25.1 26:29.2 0:04.0 8:31/M
186 Christine Low-Blunt Vacaville 1454 43 F 12 40-49 26:27.5 26:34.6 0:07.0 8:32/M
187 Hannah Wood Sacramento CA 1979 26 F 15 19-29 26:28.8 26:36.8 0:08.0 8:32/M
188 Togo Kurosaki Sacramento CA 1398 9 M 18 1-12 26:28.9 26:30.2 0:01.2 8:32/M
189 Dana Laferriere Elk Grove CA 1404 61 M 6 60-69 26:31.1 26:47.7 0:16.6 8:33/M
190 Madoka Itoh Vacaville CA 1340 39 F 17 30-39 26:34.3 26:41.4 0:07.0 8:34/M
191 Jennifer Lau Rancho Cordova CA 2066 28 F 16 19-29 26:35.4 27:04.1 0:28.7 8:35/M
192 David Larsen Rancho Cordova CA 2067 27 M 13 19-29 26:35.7 27:04.3 0:28.6 8:35/M
193 Hector Sanchez Tracy CA 1746 21 M 14 19-29 26:37.5 32:44.3 6:06.8 8:35/M
194 Benjamin Ferneau Orangevale CA 2231 10 M 19 1-12 26:40.5 28:00.2 1:19.6 8:36/M
195 Jake Gallagher Sacramento CA 1171 11 M 20 1-12 26:41.0 26:46.0 0:05.0 8:36/M
196 Ryan Hopman Cameron Park CA 2180 11 M 21 1-12 26:44.9 26:55.6 0:10.7 8:37/M
197 Alice Rico Castro Valley CA 1707 39 F 18 30-39 26:47.6 26:54.0 0:06.4 8:38/M
198 Clay Keira Sacramento CA 2177 8 F 12 1-12 26:48.3 26:52.8 0:04.4 8:39/M
199 Joe Scharfenberger Auburn CA 1759 55 M 17 50-59 26:50.7 26:58.7 0:07.9 8:39/M
200 Curi Scharfenberger Auburn CA 1758 54 F 6 50-59 26:51.0 26:58.7 0:07.6 8:40/M
 
Place Name City Bib No Age Gender Age Group Chip Time Gun Time Chip Diff Pace
201 William George Gold River CA 1185 52 M 18 50-59 26:53.4 27:10.5 0:17.0 8:40/M
202 Taylor Ishida Sacramento CA 1336 13 F 13 13-15 26:53.6 27:03.4 0:09.8 8:40/M
203 Michaela Noll Elk Grove CA 1598 18 F 1 16-18 26:54.1 27:02.8 0:08.6 8:41/M
204 Jimmy McVicar Sacramento CA 1518 18 M 5 16-18 26:55.0 27:02.2 0:07.2 8:41/M
205 Natalie Wong Sacramento CA 1975 14 F 14 13-15 26:58.3 27:07.9 0:09.6 8:42/M
206 Lorie Souza Elk Grove CA 1823 46 F 13 40-49 27:01.5 27:18.1 0:16.6 8:43/M
207 Cindy Gobel Williams CA 1192 60 F 2 60-69 27:02.1 27:12.8 0:10.6 8:43/M
208 Linda Kline Chico CA 1378 56 F 7 50-59 27:03.2 27:14.2 0:11.0 8:44/M
209 Sharon Wong Elk Grove CA 1977 54 F 8 50-59 27:06.9 27:24.7 0:17.8 8:45/M
210 Tyler Parks Sacramento CA 1624 8 M 22 1-12 27:09.8 27:21.1 0:11.3 8:45/M
211 Morgan Yamamoto Sacramento CA 1986 13 F 15 13-15 27:11.9 27:16.7 0:04.7 8:46/M
212 Nate Wisham Sacramento CA 1970 11 M 23 1-12 27:12.0 27:20.4 0:08.4 8:46/M
213 Klindsey Miyao Sacramento CA 2025 12 F 13 1-12 27:13.6 27:16.9 0:03.2 8:47/M
214 Janet Lake Elk Grove CA 1405 52 F 9 50-59 27:15.2 27:33.2 0:17.9 8:47/M
215 Akira Ransibrahmanakul Sacramento CA 1682 7 M 24 1-12 27:16.1 27:17.2 0:01.0 8:48/M
216 Carson Wingfield 1963 10 M 25 1-12 27:20.9 27:26.3 0:05.4 8:49/M
217 Bobby Pederson Orangevale CA 1636 33 M 23 30-39 27:20.9 27:29.0 0:08.1 8:49/M
218 Keerti Ravula Sacramento CA 1686 9 F 14 1-12 27:21.1 27:26.1 0:04.9 8:49/M
219 Neysa Sheriff Meadow Vista CA 1786 27 F 17 19-29 27:21.7 27:29.6 0:07.9 8:49/M
220 Marc Hayden-Brewer Sacramento CA 1267 15 M 24 13-15 27:22.0 27:23.2 0:01.2 8:50/M
221 Kesley Sutch Carmichael CA 2189 8 F 15 1-12 27:22.1 27:27.2 0:05.1 8:50/M
222 Patti Hartinian Folsom CA 1254 61 F 3 60-69 27:23.4 27:31.5 0:08.1 8:50/M
223 Brandon Elrod Antelope CA 1102 37 M 24 30-39 27:25.1 28:25.7 1:00.6 8:51/M
224 Harry Gibbons Sacramento CA 2030 62 M 7 60-69 27:25.2 27:33.1 0:07.8 8:51/M
225 Harold Holmes Rocklin CA 1314 56 M 19 50-59 27:25.5 27:34.6 0:09.1 8:51/M
226 Phuoc La Elk Grove CA 1402 29 M 15 19-29 27:26.9 27:38.6 0:11.6 8:51/M
227 Mandy Blangeres Antelope CA 2172 36 F 19 30-39 27:37.2 27:43.5 0:06.3 8:55/M
228 Julie Snider Carmichael CA 1815 55 F 10 50-59 27:39.8 27:47.2 0:07.4 8:55/M
229 Eileen Yamada Sacramento CA 1985 49 F 14 40-49 27:41.8 28:25.3 0:43.4 8:56/M
230 Andrew Turner San Jose CA 1892 29 M 16 19-29 27:45.2 28:28.9 0:43.6 8:57/M
231 Louise Lee South San Francisco CA 1419 29 F 18 19-29 27:47.9 28:18.3 0:30.3 8:58/M
232 Siddharth Dharmadhikari Folsom CA 1073 30 M 25 30-39 27:51.4 27:58.1 0:06.7 8:59/M
233 Alexander Schulke Sacramento CA 1767 13 M 25 13-15 27:51.7 27:53.2 0:01.5 8:59/M
234 Theo Haugen Folsom CA 1264 64 M 8 60-69 27:51.8 28:00.4 0:08.5 8:59/M
235 Dean Borg Sacramento CA 898 51 M 20 50-59 27:51.9 28:05.0 0:13.1 8:59/M
236 Brett Rondeau Sacramento CA 1721 37 M 26 30-39 27:58.2 28:11.1 0:12.8 9:01/M
237 Ray Kwong Sacramento CA 2058 53 M 21 50-59 28:00.9 28:14.1 0:13.2 9:02/M
238 Leigha Aguinaga Sacramento CA 812 35 F 20 30-39 28:02.4 28:27.3 0:24.9 9:03/M
239 Danielle Levin Elk Grove CA 1426 14 F 16 13-15 28:04.6 28:14.9 0:10.3 9:03/M
240 Brian Henderson Sacramento CA 1275 25 M 17 19-29 28:05.7 28:25.1 0:19.4 9:04/M
241 Noy Chanthavongsa Antelope CA 987 34 F 21 30-39 28:08.2 28:34.3 0:26.1 9:05/M
242 Sheila Scognamiglio Rancho Cordova CA 1772 54 F 11 50-59 28:08.6 28:15.2 0:06.5 9:05/M
243 Leslie Davis Sacramento CA 2010 62 F 4 60-69 28:09.1 28:19.4 0:10.3 9:05/M
244 Dylan Jones Clarksburg CA 2208 42 M 16 40-49 28:10.4 28:29.9 0:19.5 9:05/M
245 Jay Van Rein Sacramento CA 1905 47 M 17 40-49 28:11.1 29:05.5 0:54.3 9:05/M
246 Jacob Schnetz Sacramento CA 2104 10 M 26 1-12 28:14.1 28:22.8 0:08.7 9:06/M
247 Katie Hansen Lockeford CA 1239 28 F 19 19-29 28:15.0 28:56.3 0:41.2 9:07/M
248 Shuma Suzuki Elk Grove CA 1855 7 M 27 1-12 28:18.2 28:19.2 0:00.9 9:08/M
249 Randy Low Sacramento CA 1453 17 M 6 16-18 28:18.8 29:12.1 0:53.3 9:08/M
250 Audrey Dakis Elk Grove CA 1053 13 F 17 13-15 28:21.1 28:25.6 0:04.5 9:09/M
251 Vanessa Haynes Sacramento CA 1270 28 F 20 19-29 28:21.8 28:31.3 0:09.5 9:09/M
252 Tim Shester Folsom CA 2237 44 M 18 40-49 28:25.6 28:53.8 0:28.2 9:10/M
253 Jeff Mah Sacramento CA 2007 38 M 27 30-39 28:26.5 28:36.5 0:09.9 9:10/M
254 Allison Leveroni Elk Grove CA 1423 14 F 18 13-15 28:27.4 28:32.0 0:04.5 9:11/M
255 Charles Vo Elk Grove CA 1922 24 M 18 19-29 28:28.0 28:40.6 0:12.6 9:11/M
256 Lauren Workman Sacramento CA 1983 9 F 16 1-12 28:28.3 28:39.8 0:11.5 9:11/M
257 Amanda Sweet El Dorado CA 2220 39 F 22 30-39 28:34.6 28:50.1 0:15.5 9:13/M
258 Maria Timmons Lathrop CA 1876 28 F 21 19-29 28:36.2 28:45.2 0:08.9 9:14/M
259 Michael Matsumura Sacramento CA 1497 24 M 19 19-29 28:40.8 29:44.9 1:04.1 9:15/M
260 Gregory Patton Rancho Cordova CA 1632 57 M 22 50-59 28:43.7 29:17.1 0:33.4 9:16/M
261 Jacques Bowyer Davis CA 902 45 M 19 40-49 28:49.7 29:06.5 0:16.7 9:18/M
262 Steve Fujimori Sacramento CA 1162 57 M 23 50-59 28:52.0 28:58.9 0:06.8 9:19/M
263 Jeffrey Yeazell Rancho Cordova CA 1987 46 M 20 40-49 28:53.4 29:06.9 0:13.5 9:19/M
264 Annie Redman Sacramento CA 2098 45 F 15 40-49 28:54.3 29:09.0 0:14.6 9:19/M
265 Ken Ives Sacramento CA 2027 57 M 24 50-59 28:54.4 29:55.7 1:01.2 9:19/M
266 Lily Henriquez Sacramento CA 1279 13 F 19 13-15 28:56.5 28:59.9 0:03.4 9:20/M
267 Michelle Brandabur Sacramento CA 913 14 F 20 13-15 28:57.6 29:00.3 0:02.7 9:20/M
268 Joshua Skelton Elk Grove CA 1797 34 M 28 30-39 28:58.6 29:46.2 0:47.5 9:21/M
269 Therese Rosellini Elk Grove CA 1728 50 F 12 50-59 28:59.4 29:09.2 0:09.7 9:21/M
270 Matt Traxler Davis CA 2206 46 M 21 40-49 28:59.8 29:26.6 0:26.7 9:21/M
271 Cynthia Cazares Sacramento CA 2186 28 F 22 19-29 28:59.9 29:23.1 0:23.1 9:21/M
272 Tom Sheriff Meadow Vista CA 1789 61 M 9 60-69 29:00.0 29:08.4 0:08.4 9:21/M
273 Amy Carter South Lake Tahoe CA 975 29 F 23 19-29 29:00.8 29:19.2 0:18.3 9:21/M
274 Gabriel Salazar West Sacramento CA 1741 37 M 29 30-39 29:03.2 29:18.6 0:15.3 9:22/M
275 Larry Hintz Sacramento CA 1301 57 M 25 50-59 29:06.1 29:08.3 0:02.1 9:23/M
276 Alex Innocent Granite Bay CA 2124 25 M 20 19-29 29:06.8 29:35.3 0:28.5 9:23/M
277 Felicia Tanner-Corbett Roseville CA 2214 42 F 16 40-49 29:07.1 29:16.1 0:08.9 9:24/M
278 Juliet Batturaro Sacramento CA 2138 15 F 21 13-15 29:07.4 29:18.3 0:10.8 9:24/M
279 Isabella Filigenzi Sacramento CA 2137 15 F 22 13-15 29:07.7 29:18.7 0:11.0 9:24/M
280 Mikayla McDaniel 1508 10 F 17 1-12 29:09.1 29:21.1 0:12.0 9:24/M
281 Deanna McDaniel Carmichael CA 1505 40 F 17 40-49 29:09.3 29:21.0 0:11.7 9:24/M
282 Gina Kauffman Carmichael CA 2199 38 F 23 30-39 29:09.9 29:20.5 0:10.5 9:24/M
283 Erin Bruce Antelope CA 937 44 F 18 40-49 29:10.4 29:21.7 0:11.3 9:25/M
284 Kelly Frazee Folsom CA 1151 46 F 19 40-49 29:11.2 29:24.5 0:13.2 9:25/M
285 Aj Munoz Sacramento CA 1572 10 F 18 1-12 29:15.6 29:26.8 0:11.1 9:26/M
286 Tony Munoz Sacramento CA 1573 45 M 22 40-49 29:16.4 29:27.9 0:11.5 9:26/M
287 Don Kremer Antelope CA 1393 62 M 10 60-69 29:18.2 29:36.5 0:18.2 9:27/M
288 Laura Liddicoet Woodland CA 1434 31 F 24 30-39 29:20.8 29:39.9 0:19.1 9:28/M
289 Matthew Mayer Rancho Cordova CA 2069 49 M 23 40-49 29:21.6 30:00.3 0:38.7 9:28/M
290 Michael Colvin Vacaville CA 2217 45 M 24 40-49 29:23.9 29:32.7 0:08.8 9:29/M
291 Michelle Mills Sacramento CA 2026 56 F 13 50-59 29:24.7 29:39.7 0:14.9 9:29/M
292 Matthew Harmon Sacramento CA 1246 43 M 25 40-49 29:25.6 30:01.4 0:35.8 9:29/M
293 Michael Brodigan Elk Grove CA 2153 53 M 26 50-59 29:28.0 29:37.0 0:08.9 9:30/M
294 Natalie Tramontano Sacramento CA 1889 22 F 24 19-29 29:28.3 29:48.7 0:20.3 9:30/M
295 Leonie Alesci Sacramento CA 818 39 F 25 30-39 29:28.6 29:52.6 0:23.9 9:30/M
296 Tyler Duren Galt CA 2160 24 M 21 19-29 29:28.9 29:56.9 0:28.0 9:30/M
297 Sam Smith Sacramento CA 2110 8 M 28 1-12 29:29.7 29:41.8 0:12.1 9:31/M
298 Bettie Powers Wilton CA 1663 64 F 5 60-69 29:30.2 29:53.4 0:23.2 9:31/M
299 Jesus Ruelas Sacramento CA 1731 16 M 7 16-18 29:30.5 29:38.3 0:07.7 9:31/M
300 Tait Smith 2109 44 M 26 40-49 29:32.1 29:44.3 0:12.1 9:32/M
 
Place Name City Bib No Age Gender Age Group Chip Time Gun Time Chip Diff Pace
301 David Rader Camino CA 2159 49 M 27 40-49 29:33.1 29:44.4 0:11.2 9:32/M
302 Nick Davison Fair Oaks CA 1060 30 M 30 30-39 29:34.7 29:50.7 0:16.0 9:32/M
303 Sarah Davison Fair Oaks CA 1061 27 F 25 19-29 29:35.2 29:50.8 0:15.6 9:33/M
304 Anne Burgdorf Sacramento CA 946 34 F 26 30-39 29:39.1 29:55.0 0:15.9 9:34/M
305 Tom Moisuk Sacramento CA 1554 31 M 31 30-39 29:39.1 29:55.3 0:16.1 9:34/M
306 Alice Atherton Newcastle CA 853 38 F 27 30-39 29:42.0 30:02.9 0:20.8 9:35/M
307 Lisa Gray Sacramento CA 1212 50 F 14 50-59 29:42.3 31:03.4 1:21.0 9:35/M
308 Jacquelyn Ray Vallejo CA 1687 39 F 28 30-39 29:48.2 29:48.2 9:37/M
309 Carolyn Slavich Sacramento CA 1803 72 F 1 70-79 29:55.3 30:06.4 0:11.1 9:39/M
310 Jordan Poe Angels Camp CA 1654 22 M 22 19-29 29:57.7 30:24.5 0:26.7 9:40/M
311 Janet Goff Port Townsend WA 1193 57 F 15 50-59 29:59.5 30:10.1 0:10.5 9:40/M
312 Josef Fritz Sacramento CA 1156 55 M 27 50-59 30:00.3 30:23.5 0:23.2 9:41/M
313 Julie Alexander Carmichael CA 819 40 F 20 40-49 30:03.3 30:29.2 0:25.8 9:42/M
314 Ha-Mill McLearan Sacramento CA 1515 36 F 29 30-39 30:03.7 30:18.2 0:14.4 9:42/M
315 Karla Simmons Citrus Heights CA 1794 39 F 30 30-39 30:04.6 30:17.2 0:12.6 9:42/M
316 Pamela Beedie Sacramento CA 2134 48 F 21 40-49 30:05.4 30:17.5 0:12.1 9:42/M
317 Alexander Garcia Sacramento CA 1174 28 M 23 19-29 30:14.2 30:44.0 0:29.7 9:45/M
318 Corinna Montez Rio Linda CA 1559 35 F 31 30-39 30:14.6 31:39.9 1:25.3 9:45/M
319 Wendi Zimmerman Vacaville CA 2018 45 F 22 40-49 30:14.9 30:35.8 0:20.8 9:45/M
320 Allen Reid Roseville CA 1693 73 M 2 70-79 30:15.2 30:26.5 0:11.2 9:45/M
321 Gabrielle Whiting Orangevale CA 2002 36 F 32 30-39 30:18.8 30:29.4 0:10.5 9:46/M
322 Grace Hartwick Carmichael CA 1255 13 F 23 13-15 30:19.0 30:33.7 0:14.7 9:47/M
323 Rebecca George Gold River CA 1184 50 F 16 50-59 30:19.3 30:36.6 0:17.3 9:47/M
324 Jon Thomas Sacramento CA 1868 66 M 11 60-69 30:23.3 30:37.2 0:13.9 9:48/M
325 Charlene Charles Orangevale CA 2081 48 F 23 40-49 30:23.4 30:42.8 0:19.3 9:48/M
326 Christine Poe Angels Camp CA 1653 43 F 24 40-49 30:23.6 30:49.9 0:26.2 9:48/M
327 Villareal Johnson Washington DC 2167 36 M 32 30-39 30:27.9 31:16.4 0:48.5 9:49/M
328 Julieann Hoffman Tracy CA 1308 40 F 25 40-49 30:28.3 30:50.6 0:22.3 9:50/M
329 Madisen Elorza Rancho Cordova CA 1101 10 F 19 1-12 30:31.5 30:42.3 0:10.8 9:51/M
330 Christine Lakin Elk Grove CA 1406 25 F 26 19-29 30:41.4 30:56.9 0:15.5 9:54/M
331 Jade Epps Sacramento CA 1107 9 F 20 1-12 30:41.9 30:56.7 0:14.8 9:54/M
332 Larisa Bautista Sacramento CA 871 30 F 33 30-39 30:42.3 30:54.4 0:12.1 9:54/M
333 Molly Peterson Sacramento CA 2084 44 F 26 40-49 30:43.1 31:05.3 0:22.2 9:55/M
334 Terrence Thompson Sacramento CA 2012 52 M 28 50-59 30:47.2 31:01.2 0:14.0 9:56/M
335 Scott Greene Sacramento CA 1215 48 M 28 40-49 30:47.5 31:01.1 0:13.6 9:56/M
336 Robert Huston Mather CA 1328 43 M 29 40-49 30:47.7 31:02.9 0:15.2 9:56/M
337 Kaila Sheriff Auburn CA 1785 6 F 21 1-12 30:48.3 31:06.8 0:18.4 9:56/M
338 Ben Sheriff Auburn CA 1784 30 M 33 30-39 30:48.6 31:07.7 0:19.0 9:56/M
339 Kathleen Huston Sacramento CA 1326 37 F 34 30-39 30:48.8 31:03.1 0:14.3 9:56/M
340 Johnna Epps Sacramento CA 1108 27 F 27 19-29 30:53.1 31:07.9 0:14.8 9:58/M
341 Bryan Lechich Sacramento CA 2019 43 M 30 40-49 30:58.0 31:31.1 0:33.0 9:59/M
342 Rondy Yu Sacramento CA 1992 32 M 34 30-39 30:58.4 31:18.7 0:20.2 9:59/M
343 Afton Lee West Sacramento CA 2146 31 F 35 30-39 31:01.3 31:19.6 0:18.2 10:00/M
344 Jessica Hodson West Sacramento CA 2145 30 F 36 30-39 31:01.6 31:19.6 0:17.9 10:00/M
345 Michael Love Sacramento CA 1452 56 M 29 50-59 31:03.2 31:23.9 0:20.7 10:01/M
346 Ric Reyes Elk Grove CA 1700 33 M 35 30-39 31:04.3 32:03.0 0:58.6 10:01/M
347 Terry Snook Elk Grove CA 1816 55 M 30 50-59 31:05.1 31:30.2 0:25.0 10:02/M
348 Richard Parrott Sacramento CA 1627 45 M 31 40-49 31:05.2 32:03.4 0:58.2 10:02/M
349 Megan Viduya Sacramento CA 1913 20 F 28 19-29 31:05.4 31:12.7 0:07.2 10:02/M
350 Trish Fontana Elk Grove CA 1143 48 F 27 40-49 31:05.5 31:30.7 0:25.2 10:02/M
351 Allison Moser Sacramento CA 1569 28 F 29 19-29 31:07.2 31:57.5 0:50.2 10:02/M
352 Carl Ming Sacramento CA 1547 8 M 29 1-12 31:10.0 31:29.9 0:19.9 10:03/M
353 Cruz Silva Sacramento CA 1793 9 M 30 1-12 31:10.1 31:15.5 0:05.4 10:03/M
354 Abby Hofacker Carmichael CA 1307 8 F 22 1-12 31:11.7 31:16.8 0:05.0 10:04/M
355 Kelly Thompson Sacramento CA 1869 40 F 28 40-49 31:12.8 31:33.1 0:20.3 10:04/M
356 Lynnette Brady Sacramento CA 911 33 F 37 30-39 31:13.1 31:27.3 0:14.2 10:04/M
357 Sophia Dakis Elk Grove CA 1055 12 F 23 1-12 31:13.3 31:27.8 0:14.5 10:04/M
358 Jovani Zamora Oakland CA 1995 12 M 31 1-12 31:13.6 32:00.8 0:47.1 10:04/M
359 Denice Murck-Kilgour Rancho Murieta CA 1578 58 F 17 50-59 31:13.8 31:33.5 0:19.7 10:04/M
360 Nichole Bruce Placerville CA 939 26 F 30 19-29 31:15.3 31:46.4 0:31.0 10:05/M
361 Laura Barna Manteca CA 866 29 F 31 19-29 31:16.3 32:46.7 1:30.3 10:05/M
362 Gloria Gonzalez Sacramento CA 2218 45 F 29 40-49 31:16.4 31:33.2 0:16.7 10:05/M
363 Jenny Park Fair Oaks CA 1621 49 F 30 40-49 31:20.6 32:46.4 1:25.7 10:06/M
364 Sarah Maile Sacramento CA 1476 44 F 31 40-49 31:21.2 31:36.0 0:14.8 10:07/M
365 Elizabeth Crisante Sacramento CA 1036 39 F 38 30-39 31:23.0 31:55.7 0:32.7 10:07/M
366 Brosnan Rhodes San Francisco CA 1702 29 M 24 19-29 31:25.3 32:21.4 0:56.1 10:08/M
367 Ben White Sacramento CA 1950 32 M 36 30-39 31:26.7 32:22.2 0:55.4 10:08/M
368 Keith Schlotthauer Auburn CA 1760 49 M 32 40-49 31:27.7 31:44.9 0:17.2 10:09/M
369 Nancy Mauri Antioch CA 1498 45 F 32 40-49 31:33.2 31:48.2 0:14.9 10:11/M
370 Sarah Ream Sacramento CA 1689 42 F 33 40-49 31:35.0 32:42.2 1:07.2 10:11/M
371 Julia Atlee Sacramento CA 854 14 F 24 13-15 31:38.3 31:58.7 0:20.4 10:12/M
372 Suzanne May Fair Oaks CA 1499 37 F 39 30-39 31:42.3 31:49.6 0:07.2 10:14/M
373 Samantha Washington Sacramento CA 1929 38 F 40 30-39 31:47.4 32:10.6 0:23.2 10:15/M
374 Zoeh Chase Roseville CA 2133 21 M 25 19-29 31:49.0 31:51.2 0:02.2 10:16/M
375 Matt Dawson Hanford CA 1065 33 M 37 30-39 31:56.0 32:36.7 0:40.6 10:18/M
376 Paul Concannon Sacramento CA 1017 46 M 33 40-49 31:56.9 32:57.7 1:00.7 10:18/M
377 James Dressler Sacramento CA 1086 37 M 38 30-39 31:57.2 32:13.3 0:16.0 10:18/M
378 Keaton Young Sacramento CA 1990 28 M 26 19-29 31:57.8 32:38.1 0:40.3 10:18/M
379 Brooke Dawson Hanford CA 1064 32 F 41 30-39 31:59.9 32:41.2 0:41.3 10:19/M
380 Natalie Johnson Davis CA 2029 34 F 42 30-39 32:03.6 32:21.1 0:17.5 10:20/M
381 Lisa Cathcart Folsom CA 982 33 F 43 30-39 32:04.1 32:21.3 0:17.2 10:21/M
382 Christina Tomlinson Sacramento CA 1880 43 F 34 40-49 32:05.4 32:28.6 0:23.2 10:21/M
383 Darrick Logan Stockton CA 1446 42 M 34 40-49 32:05.7 32:53.6 0:47.9 10:21/M
384 Rose Froling Sacramento CA 1157 37 F 44 30-39 32:06.8 33:22.0 1:15.2 10:21/M
385 Jennifer Irwin Roseville CA 1335 36 F 45 30-39 32:10.9 32:38.4 0:27.5 10:23/M
386 Trisha Neal Sacramento CA 1587 51 F 18 50-59 32:11.5 32:37.4 0:25.9 10:23/M
387 Rebekah Cates Tuxedo NY 981 34 F 46 30-39 32:15.5 32:41.4 0:25.9 10:24/M
388 Lori Merklein Elk Grove CA 1527 52 F 19 50-59 32:16.0 32:37.6 0:21.6 10:25/M
389 John Segerdell Sacramento CA 1774 72 M 3 70-79 32:16.2 32:37.7 0:21.4 10:25/M
390 Amanda Solgat Sacramento CA 1819 47 F 35 40-49 32:23.8 32:50.7 0:26.8 10:27/M
391 Van La Elk Grove CA 1403 30 F 47 30-39 32:24.1 32:36.5 0:12.4 10:27/M
392 Cristina Solorio Rocklin CA 2052 27 F 32 19-29 32:24.1 32:37.4 0:13.2 10:27/M
393 Jade Brooks Redding CA 930 40 F 36 40-49 32:25.1 32:52.9 0:27.8 10:27/M
394 Telene Monteverde Sacramento CA 1558 36 F 48 30-39 32:25.1 33:03.5 0:38.3 10:27/M
395 Spencer Brooks Redding CA 932 9 M 32 1-12 32:25.2 32:52.4 0:27.2 10:27/M
396 Tierra Crothers Sacramento CA 1040 39 F 49 30-39 32:26.5 32:47.8 0:21.3 10:28/M
397 Sarah Graham Sacramento CA 1210 31 F 50 30-39 32:26.8 32:47.7 0:20.9 10:28/M
398 Liana McGill Reno NV 2215 58 F 20 50-59 32:28.2 32:50.3 0:22.1 10:28/M
399 Mark Smith Fair Oaks CA 2240 57 M 31 50-59 32:28.2 32:59.1 0:30.8 10:28/M
400 C Goto Sacramento CA 1209 59 F 21 50-59 32:28.6 32:51.4 0:22.8 10:28/M
 
Place Name City Bib No Age Gender Age Group Chip Time Gun Time Chip Diff Pace
401 Chyloe Lock Sacramento CA 1445 33 F 51 30-39 32:28.7 33:07.8 0:39.0 10:28/M
402 Jeremy Brooks Redding CA 931 43 M 35 40-49 32:29.1 32:55.9 0:26.8 10:29/M
403 Laurie Rogers Roseville CA 1716 49 F 37 40-49 32:29.3 33:09.0 0:39.7 10:29/M
404 Arlynn Ward Diamond Springs CA 1926 53 F 22 50-59 32:29.9 32:51.8 0:21.9 10:29/M
405 Noelle Cremers Sacramento CA 1035 35 F 52 30-39 32:30.7 34:01.1 1:30.3 10:29/M
406 Rebecca Burch 2216 47 F 38 40-49 32:34.9 32:56.6 0:21.7 10:30/M
407 Pauline Holmes Rescue CA 1315 61 F 6 60-69 32:36.2 33:18.3 0:42.0 10:31/M
408 Erin Laperle Gold River CA 1412 31 F 53 30-39 32:37.0 33:02.1 0:25.1 10:31/M
409 Theresa Roberts Fair Oaks CA 1711 64 F 7 60-69 32:37.4 32:54.8 0:17.3 10:31/M
410 Haruki Uchinoumi Davis CA 1895 7 M 33 1-12 32:37.7 32:39.2 0:01.5 10:31/M
411 Akito Kroupa Elk Grove CA 1395 7 M 34 1-12 32:38.4 32:39.4 0:00.9 10:32/M
412 Dilara Boring Sacramento CA 900 34 F 54 30-39 32:40.3 33:07.1 0:26.8 10:32/M
413 Chiyo Shingu Stockton CA 2162 75 F 2 70-79 32:41.6 32:56.6 0:14.9 10:33/M
414 Margaret Weston Sacramento CA 1944 32 F 55 30-39 32:43.5 33:06.1 0:22.6 10:33/M
415 Michael Perez Elk Grove CA 1640 45 M 36 40-49 32:43.9 32:55.4 0:11.5 10:33/M
416 Susan Maas Sacramento CA 1464 30 F 56 30-39 32:45.4 32:54.5 0:09.1 10:34/M
417 James Knox Sacramento CA 1385 35 M 39 30-39 32:45.5 32:54.7 0:09.1 10:34/M
418 Elizabeth Stewart Sacramento CA 1838 46 F 39 40-49 32:45.7 33:03.5 0:17.8 10:34/M
419 Jeffrey Lindsay Citrus Heights CA 1438 59 M 32 50-59 32:46.8 32:59.2 0:12.3 10:34/M
420 Erin Holliday Sacramento CA 1311 28 F 33 19-29 32:48.4 33:10.0 0:21.6 10:35/M
421 Nancy Nos Sacramento CA 1604 62 F 8 60-69 32:49.7 33:13.2 0:23.5 10:35/M
422 Doug Nos Sacramento CA 1603 61 M 12 60-69 32:49.9 33:13.7 0:23.7 10:35/M
423 Charlotte Phillips Folsom CA 2147 32 F 57 30-39 32:52.1 33:16.2 0:24.0 10:36/M
424 Chocquida Robins Sacramento CA 1712 25 F 34 19-29 32:52.8 33:17.0 0:24.1 10:36/M
425 Suzanne Warren Sacramento CA 1928 40 F 40 40-49 32:54.2 33:14.8 0:20.6 10:37/M
426 Enrique Gonzalez Sacramento CA 1200 30 M 40 30-39 32:54.7 33:23.7 0:29.0 10:37/M
427 Sarah Watkins Sacramento CA 1933 33 F 58 30-39 32:54.7 33:32.9 0:38.2 10:37/M
428 Liliana Gonzalez Sacramento CA 1201 12 F 24 1-12 32:55.8 33:24.1 0:28.2 10:37/M
429 Lizzy Paul Citrus Heights CA 2201 40 F 41 40-49 32:56.5 33:15.0 0:18.5 10:37/M
430 Kelly Solor Sacramento CA 2075 30 F 59 30-39 32:58.6 32:58.6 10:38/M
431 Virginia Lambing Sacramento CA 1409 24 F 35 19-29 32:59.6 33:26.2 0:26.5 10:38/M
432 James Ferguson San Francisco CA 1139 32 M 41 30-39 33:00.0 35:22.8 2:22.8 10:39/M
433 Michelle Garibay Sacramento CA 1176 36 F 60 30-39 33:01.0 33:19.5 0:18.5 10:39/M
434 Darrian Chin Elk Grove CA 997 10 M 35 1-12 33:01.4 33:25.3 0:23.9 10:39/M
435 Lisa Toms Roseville CA 1882 45 F 42 40-49 33:02.2 33:31.7 0:29.4 10:39/M
436 Anna Deleon Sacramento CA 2226 9 F 25 1-12 33:04.6 33:53.9 0:49.2 10:40/M
437 Eleanor Alvarez Sacramento CA 2229 46 F 43 40-49 33:12.3 33:22.3 0:10.0 10:43/M
438 Graham Preston Davis CA 1664 31 M 42 30-39 33:15.5 35:23.5 2:08.0 10:44/M
439 Ellen Kelton Carmichael CA 2118 32 F 61 30-39 33:15.5 34:02.2 0:46.6 10:44/M
440 Elliot Schnetz Sacramento CA 2105 8 M 36 1-12 33:15.9 33:25.8 0:09.8 10:44/M
441 James Dick Sacramento CA 1074 42 M 37 40-49 33:16.2 33:41.2 0:25.0 10:44/M
442 Amy Schnik Sacramento CA 2103 38 F 62 30-39 33:16.5 33:26.0 0:09.5 10:44/M
443 Nicole Gergans Sacramento CA 2164 38 F 63 30-39 33:16.7 33:40.8 0:24.1 10:44/M
444 Nathan Briley Sacramento CA 923 31 M 43 30-39 33:21.4 33:45.9 0:24.5 10:45/M
445 Samantha MacRiss Sacramento CA 1467 14 F 25 13-15 33:21.5 33:27.2 0:05.6 10:45/M
446 Sallie Smyers Sacramento CA 1814 47 F 44 40-49 33:23.3 33:45.1 0:21.8 10:46/M
447 Quetzali Arroyo-Perez West Sacramento CA 852 12 F 26 1-12 33:23.8 33:29.5 0:05.6 10:46/M
448 Rayko Fabionar West Sacramento CA 1122 9 M 37 1-12 33:26.4 33:45.9 0:19.5 10:47/M
449 Rosie Enriquez Dixon CA 1106 59 F 23 50-59 33:29.1 33:50.3 0:21.1 10:48/M
450 Kelly Medinger Sacramento 1520 36 F 64 30-39 33:29.9 40:18.9 6:48.9 10:48/M
451 Steve Medinger Sacramento CA 1521 36 M 44 30-39 33:30.7 40:19.1 6:48.3 10:48/M
452 Khristy Scholtz Placerville CA 1765 40 F 45 40-49 33:30.7 34:03.1 0:32.3 10:48/M
453 Joseph Lucas Dixon CA 1458 33 M 45 30-39 33:30.8 34:15.6 0:44.7 10:48/M
454 Jessica Scholtz Folsom CA 1764 38 F 65 30-39 33:31.3 34:02.4 0:31.1 10:49/M
455 Sydney Donnell Sacramento CA 1078 26 F 36 19-29 33:31.5 33:55.1 0:23.6 10:49/M
456 Jackie Lott Carmichael CA 1451 23 F 37 19-29 33:31.7 33:59.9 0:28.2 10:49/M
457 Kelsey Burgess Placerville CA 947 13 F 26 13-15 33:31.7 34:03.6 0:31.9 10:49/M
458 Shelley Nowak Pleasant Grove CA 1606 37 F 66 30-39 33:31.9 33:48.6 0:16.7 10:49/M
459 Douglas Nowak Pleasant Grove CA 1605 40 M 38 40-49 33:32.2 33:49.1 0:16.9 10:49/M
460 Belle Scholtz Folsom CA 1763 9 F 27 1-12 33:32.3 34:03.7 0:31.4 10:49/M
461 Lindsey Smith Stockton CA 1807 24 F 38 19-29 33:34.0 34:06.7 0:32.6 10:50/M
462 Edward Echeverria El Dorado Hills CA 1097 78 M 4 70-79 33:37.6 33:52.8 0:15.1 10:51/M
463 Lori Durfor Marysville CA 1094 58 F 24 50-59 33:38.7 34:00.2 0:21.5 10:51/M
464 Jaclyn Kirkwood Sacramento CA 1374 34 F 67 30-39 33:40.2 34:02.2 0:21.9 10:52/M
465 Alex Chin Elk Grove CA 996 44 M 39 40-49 33:41.1 34:06.1 0:25.0 10:52/M
466 Jaicob Isip Tracy CA 1337 8 M 38 1-12 33:43.4 33:45.5 0:02.1 10:53/M
467 Megahn Stewart Sacramento CA 1840 30 F 68 30-39 33:45.7 34:14.8 0:29.1 10:53/M
468 Jim Perry Roseville CA 1641 52 M 33 50-59 33:49.1 34:07.7 0:18.6 10:55/M
469 Rowena Isip Tracy CA 1339 37 F 69 30-39 33:49.6 33:51.7 0:02.0 10:55/M
470 Jackie Wheeler Grass Valley CA 1946 47 F 46 40-49 33:50.7 33:59.0 0:08.3 10:55/M
471 Miles Paraso Elk Grove CA 2175 15 M 26 13-15 33:51.3 34:00.6 0:09.3 10:55/M
472 Will Myatt 1581 10 M 39 1-12 33:51.3 34:07.9 0:16.6 10:55/M
473 Fred Miller Lincoln CA 1540 56 M 34 50-59 33:52.0 34:09.7 0:17.6 10:55/M
474 Shirene Erickson Lincoln CA 1109 35 F 70 30-39 33:52.9 34:04.6 0:11.7 10:55/M
475 Gabby Nepomuceno Davis CA 1589 26 F 39 19-29 33:52.9 34:36.6 0:43.6 10:55/M
476 Vanessa Erickson Lincoln CA 1110 8 F 28 1-12 33:53.0 34:04.7 0:11.7 10:56/M
477 Kristin Cameron Sacramento CA 961 26 F 40 19-29 33:53.1 34:35.9 0:42.8 10:56/M
478 Chris Pantos Penryn CA 1620 73 M 5 70-79 33:53.3 34:02.1 0:08.7 10:56/M
479 Morgan Klink Auburn CA 1381 9 F 29 1-12 33:59.0 34:47.8 0:48.7 10:58/M
480 Tony Klink Auburn CA 1382 39 M 46 30-39 33:59.5 34:47.5 0:48.0 10:58/M
481 Casey Klink Auburn CA 1379 7 F 30 1-12 33:59.9 34:48.5 0:48.6 10:58/M
482 Gabe Guillen Sacramento CA 1224 9 M 40 1-12 34:00.4 34:13.4 0:13.0 10:58/M
483 Kraig Leland Rancho Cordova CA 1421 40 M 40 40-49 34:02.3 36:05.6 2:03.2 10:59/M
484 Chelsey Land Carmichael CA 1410 25 F 41 19-29 34:02.6 34:20.6 0:18.0 10:59/M
485 Jennifer Plescia Sacramento CA 1652 32 F 71 30-39 34:03.4 34:17.9 0:14.4 10:59/M
486 Samantha Ream Cameron Park CA 1688 10 F 31 1-12 34:03.9 34:37.9 0:34.0 10:59/M
487 Pilar Onate El Dorado Hills CA 1613 46 F 47 40-49 34:09.3 34:32.5 0:23.1 11:01/M
488 Marlyn Radevic Carmichael CA 2088 32 F 72 30-39 34:13.2 35:15.1 1:01.9 11:02/M
489 Frank Tokoly West Sacramento CA 2078 35 M 47 30-39 34:13.5 34:57.4 0:43.9 11:02/M
490 Jennifer Burton Sacramento CA 2089 31 F 73 30-39 34:13.9 35:14.6 1:00.6 11:02/M
491 Victoria Smolich Sacramento CA 1811 61 F 9 60-69 34:15.0 34:33.0 0:18.0 11:03/M
492 Gordon Hall Sacramento CA 1234 82 M 1 80-99 34:15.9 34:37.5 0:21.6 11:03/M
493 Makenna Schaefer Sacramento CA 1756 7 F 32 1-12 34:18.1 35:42.2 1:24.1 11:04/M
494 Sofia Factor Sacramento CA 1126 12 F 33 1-12 34:20.2 34:33.2 0:13.0 11:05/M
495 Andrew Factor Sacramento CA 2131 53 M 35 50-59 34:20.8 34:34.7 0:13.9 11:05/M
496 Sebastian Factor Sacramento CA 1124 10 M 41 1-12 34:20.8 34:34.3 0:13.4 11:05/M
497 Sonja Goode Sacramento CA 1205 40 F 48 40-49 34:21.3 34:38.6 0:17.2 11:05/M
498 Opal Smith 1809 9 F 34 1-12 34:22.1 34:33.0 0:10.9 11:05/M
499 Bronwyn Garrison Woodland CA 1177 32 F 74 30-39 34:23.0 35:24.4 1:01.3 11:05/M
500 Cristina Duran Sacramento CA 1091 32 F 75 30-39 34:24.0 34:50.9 0:26.9 11:06/M
 
Place Name City Bib No Age Gender Age Group Chip Time Gun Time Chip Diff Pace
501 Ruben Duran Sacramento CA 1092 32 M 48 30-39 34:24.9 34:52.4 0:27.5 11:06/M
502 Brittany Ramirez Napa CA 1681 33 F 76 30-39 34:26.0 35:52.4 1:26.4 11:06/M
503 Hong Lin Elk Grove CA 1436 39 F 77 30-39 34:27.5 34:46.5 0:18.9 11:07/M
504 Alexandra Biering Sacramento CA 884 32 F 78 30-39 34:29.3 35:11.3 0:41.9 11:07/M
505 Brian Biering Sacramento CA 885 31 M 49 30-39 34:29.6 35:11.4 0:41.7 11:07/M
506 Megan Weiss Dixon CA 1941 24 F 42 19-29 34:30.9 34:52.5 0:21.6 11:08/M
507 Felix Weiss Dixon CA 1940 27 M 27 19-29 34:31.5 34:52.7 0:21.2 11:08/M
508 Dawn McQuirk Sacramento CA 1517 41 F 49 40-49 34:31.6 35:00.2 0:28.6 11:08/M
509 John Brace Antelope CA 908 37 M 50 30-39 34:32.9 34:48.7 0:15.8 11:08/M
510 Jewel Brace Sacramento CA 907 10 F 35 1-12 34:34.0 34:48.5 0:14.4 11:09/M
511 Juliana Castro Sacramento CA 980 9 F 36 1-12 34:35.9 34:46.1 0:10.2 11:09/M
512 Candice Brace Antelope CA 906 35 F 79 30-39 34:36.9 34:51.5 0:14.6 11:10/M
513 Macie Mejia Sutter CA 1525 14 F 27 13-15 34:37.8 35:53.2 1:15.3 11:10/M
514 Lori Burke Roseville CA 948 45 F 50 40-49 34:38.1 35:17.4 0:39.3 11:10/M
515 Suzanne Waters Carmichael CA 1932 43 F 51 40-49 34:39.7 35:05.2 0:25.5 11:11/M
516 Sarah Varanini Sacramento CA 1907 31 F 80 30-39 34:40.1 35:05.1 0:25.0 11:11/M
517 Oscar Meza Sacramento CA 1532 58 M 36 50-59 34:40.8 35:19.7 0:38.9 11:11/M
518 Christopher Bennett Carmichael CA 2115 44 M 41 40-49 34:41.2 35:12.1 0:30.9 11:11/M
519 Tina Traxler Roseville CA 2205 52 F 25 50-59 34:41.7 35:08.5 0:26.8 11:11/M
520 A.j. Topete Galt CA 1883 12 M 42 1-12 34:44.5 34:56.1 0:11.6 11:12/M
521 Melody Martinez Rancho Cordova CA 1491 34 F 81 30-39 34:45.8 35:37.1 0:51.3 11:13/M
522 Autumn Garcia Sacramento CA 1175 7 F 37 1-12 34:46.4 34:58.5 0:12.0 11:13/M
523 Katrina Hiott Sacramento CA 1302 29 F 43 19-29 34:47.2 36:27.4 1:40.1 11:13/M
524 Abby Hay Sacramento CA 1265 31 F 82 30-39 34:47.6 36:27.4 1:39.7 11:13/M
525 Carlos Banuelos Sacramento CA 864 32 M 51 30-39 34:48.8 35:40.2 0:51.3 11:14/M
526 Veronica Garcia Sacramento CA 2141 40 F 52 40-49 34:49.2 35:01.4 0:12.2 11:14/M
527 Cady Nievergect 1597 7 F 38 1-12 34:49.6 35:02.0 0:12.3 11:14/M
528 Tamara Bricker Oakland CA 920 37 F 83 30-39 34:49.7 35:37.4 0:47.7 11:14/M
529 Lara Kong Sacramento CA 1386 17 F 2 16-18 34:51.7 35:41.3 0:49.5 11:15/M
530 Reid Masaki Sacramento CA 1492 17 M 8 16-18 34:51.9 35:41.2 0:49.3 11:15/M
531 Inthita Srithahan Sterling VA 2246 45 F 53 40-49 34:52.1 35:03.7 0:11.6 11:15/M
532 Tammy Hodgkin West Sacramento CA 1306 28 F 44 19-29 34:52.2 35:08.1 0:15.8 11:15/M
533 Kerrie Freemyers Rancho Cordova CA 1154 44 F 54 40-49 34:53.7 36:08.4 1:14.7 11:15/M
534 Jennifer Kaiser Marysville CA 1361 40 F 55 40-49 34:56.5 35:17.8 0:21.3 11:16/M
535 Cathy Collins Yuba City CA 1015 34 F 84 30-39 34:56.8 35:17.8 0:20.9 11:16/M
536 Kimberly Moore Colusa CA 2212 30 F 85 30-39 34:58.4 35:30.4 0:31.9 11:17/M
537 Laura Watermolen Elk Grove CA 1930 16 F 3 16-18 35:00.9 35:35.9 0:34.9 11:17/M
538 Cheryl Ponce Rancho Cordova CA 1656 49 F 56 40-49 35:03.4 35:28.3 0:24.8 11:18/M
539 Jill Porter Rancho Cordova CA 1659 60 F 10 60-69 35:04.0 35:14.3 0:10.2 11:19/M
540 Arwyn Austin Sacramento CA 855 8 F 39 1-12 35:04.3 35:15.6 0:11.3 11:19/M
541 Brayden Mann Roseville CA 1481 9 M 43 1-12 35:04.5 43:34.1 8:29.6 11:19/M
542 Andrew Hanson Yuba City CA 1242 8 M 44 1-12 35:04.5 43:33.8 8:29.3 11:19/M
543 Scott Hanson Yuba City CA 1244 38 M 52 30-39 35:04.9 43:34.4 8:29.5 11:19/M
544 Pauline Storey Sacramento CA 1847 8 F 40 1-12 35:05.3 35:17.4 0:12.0 11:19/M
545 Anna Lisa Storey Sacramento CA 1846 40 F 57 40-49 35:07.2 35:19.7 0:12.5 11:20/M
546 Tamarin Austin Sacramento CA 858 40 F 58 40-49 35:07.3 35:19.6 0:12.3 11:20/M
547 Leslie Braden Fairfield CA 909 39 F 86 30-39 35:08.1 45:19.4 10:11.2 11:20/M
548 Brittany Welch-Jackson Lincoln CA 1942 27 F 45 19-29 35:08.5 36:02.8 0:54.2 11:20/M
549 Clarissa Pimentel Sacramento To CA 1646 42 F 59 40-49 35:11.6 35:39.5 0:27.8 11:21/M
550 Louise Bennett Carmichael CA 881 40 F 60 40-49 35:11.7 35:43.8 0:32.0 11:21/M
551 Shayla Wagner Reno NV 1923 14 F 28 13-15 35:12.2 35:41.7 0:29.5 11:21/M
552 Ruth Meyer Carmichael CA 1530 58 F 26 50-59 35:12.8 35:29.1 0:16.3 11:21/M
553 Isabelle Bennett Carmichael CA 880 9 F 41 1-12 35:12.9 35:45.5 0:32.5 11:21/M
554 Kate Anthony Carmichael CA 839 53 F 27 50-59 35:13.3 35:42.9 0:29.5 11:22/M
555 Sarah Fry Sacramento CA 1159 31 F 87 30-39 35:14.3 36:30.1 1:15.7 11:22/M
556 Russell Anderson Sacramento CA 835 45 M 42 40-49 35:15.2 35:40.3 0:25.1 11:22/M
557 Tori Forster Citrus Heights CA 1147 38 F 88 30-39 35:15.2 35:35.6 0:20.3 11:22/M
558 Cindy Anderson Sacramento CA 831 48 F 61 40-49 35:15.7 35:40.9 0:25.1 11:22/M
559 Martin Crownover Carmichael CA 1041 32 M 53 30-39 35:15.7 35:49.3 0:33.5 11:22/M
560 Chloe Paul Citrus Heights CA 1633 15 F 29 13-15 35:16.3 35:36.2 0:19.8 11:23/M
561 Jacob Harshbarger Fair Oaks CA 1252 32 M 54 30-39 35:16.9 36:28.6 1:11.6 11:23/M
562 Stephen Alessi Sacramento CA 2042 51 M 37 50-59 35:17.2 35:40.7 0:23.5 11:23/M
563 Yesel Alcantar Carmichael CA 816 31 F 89 30-39 35:17.2 35:51.2 0:33.9 11:23/M
564 Alison Rutkowski Folsom CA 1734 28 F 46 19-29 35:18.1 36:12.4 0:54.3 11:23/M
565 Bethany Rodgers Sacramento CA 1714 33 F 90 30-39 35:20.8 35:49.7 0:28.9 11:24/M
566 Claire Piper Meadow Vista CA 1650 4 F 42 1-12 35:24.5 35:48.0 0:23.4 11:25/M
567 Chris Piper Meadow Vista CA 1649 32 M 55 30-39 35:26.2 35:47.5 0:21.3 11:26/M
568 Felicia Gonzales Sacramento CA 2062 40 F 62 40-49 35:26.2 35:54.7 0:28.4 11:26/M
569 Megan Canfield Sacramento CA 2142 41 F 63 40-49 35:33.2 35:58.0 0:24.8 11:28/M
570 Blair Reese Sacramento CA 1691 28 F 47 19-29 35:36.9 35:56.2 0:19.3 11:29/M
571 April Mochizuki Sacramento CA 1551 32 F 91 30-39 35:39.2 36:32.9 0:53.7 11:30/M
572 Coel Miller 1538 10 M 45 1-12 35:39.8 35:56.3 0:16.5 11:30/M
573 Theresa Parsley Rocklin CA 1629 55 F 28 50-59 35:40.7 36:02.4 0:21.6 11:30/M
574 Glenn Miller Sacramento CA 1541 49 M 43 40-49 35:43.0 36:00.2 0:17.1 11:31/M
575 Angela Stewart Elk Grove CA 1837 46 F 64 40-49 35:43.9 36:00.1 0:16.1 11:31/M
576 Sandeep Maddipatla Rancho Cordova CA 1468 28 M 28 19-29 35:45.7 36:09.0 0:23.3 11:32/M
577 Ben Tuttle Davis CA 1893 7 M 46 1-12 35:46.1 36:05.6 0:19.5 11:32/M
578 Clarissa Tuttle Davis CA 1894 38 F 92 30-39 35:46.1 36:05.5 0:19.3 11:32/M
579 Kevin Young Roseville CA 2221 38 M 56 30-39 35:46.7 36:09.1 0:22.4 11:32/M
580 Tracy Young Roseville -- 2222 36 F 93 30-39 35:47.3 36:09.4 0:22.1 11:33/M
581 Kellie Vasen Cameron Park CA 1908 44 F 65 40-49 35:47.4 36:21.7 0:34.2 11:33/M
582 Catherine Borg Sacramento CA 897 44 F 66 40-49 35:49.9 36:16.2 0:26.3 11:33/M
583 Sean Bingham Tracy CA 888 53 M 38 50-59 35:51.4 36:44.3 0:52.9 11:34/M
584 Rita Dillon Winters CA 2181 50 F 29 50-59 35:54.7 36:08.4 0:13.6 11:35/M
585 Lishaun Francis Sacramento CA 1150 28 F 48 19-29 36:02.1 36:39.1 0:36.9 11:37/M
586 Allegra Hakim Sacramento CA 1232 54 F 30 50-59 36:03.1 37:18.2 1:15.0 11:38/M
587 Emily Brown Napa CA 2074 39 F 94 30-39 36:03.6 36:27.9 0:24.2 11:38/M
588 Kiwee Situ Sacramento CA 1796 25 F 49 19-29 36:04.7 37:17.7 1:13.0 11:38/M
589 Sallianne Maliguine Sacramento CA 1478 44 F 67 40-49 36:05.8 36:32.9 0:27.0 11:38/M
590 Ron Hess Davis CA 2071 72 M 6 70-79 36:09.4 36:41.1 0:31.6 11:40/M
591 Dawn Delange Auburn CA 1068 25 F 50 19-29 36:16.6 36:24.7 0:08.0 11:42/M
592 Christy Francis San Jose CA 1149 38 F 95 30-39 36:17.4 37:13.8 0:56.3 11:42/M
593 Jessica Looney Sutter CA 1450 18 F 4 16-18 36:17.5 36:26.2 0:08.7 11:42/M
594 Selwyn Paraso Elk Grove CA 2174 45 M 44 40-49 36:21.1 36:43.7 0:22.6 11:44/M
595 Carl Carter West Sacramento CA 976 32 M 57 30-39 36:28.2 37:28.5 1:00.3 11:46/M
596 Rylee Carter West Sacramento CA 979 7 F 43 1-12 36:28.2 37:28.4 1:00.1 11:46/M
597 Savanna Koop Elk Grove CA 1387 30 F 96 30-39 36:28.4 37:18.9 0:50.4 11:46/M
598 Jennifer Jackso Schrum Fair Oaks CA 1766 39 F 97 30-39 36:28.7 37:16.4 0:47.7 11:46/M
599 Tracy Meier Citrus Heights CA 1522 28 F 51 19-29 36:29.9 37:23.8 0:53.8 11:46/M
600 Eileen Bellotti Loomis CA 877 63 F 11 60-69 36:30.4 37:35.9 1:05.5 11:46/M
 
Place Name City Bib No Age Gender Age Group Chip Time Gun Time Chip Diff Pace
601 Barbara Davy Rancho Cordova CA 1062 69 F 12 60-69 36:38.5 37:03.2 0:24.6 11:49/M
602 Marissa Galindo Antelope CA 1168 16 F 5 16-18 36:41.7 37:36.5 0:54.8 11:50/M
603 Phil Montalbano Fair Oaks CA 1556 49 M 45 40-49 36:44.7 37:08.9 0:24.2 11:51/M
604 Robbie Montalbano Fair Oaks CA 1557 46 F 68 40-49 36:45.2 37:08.8 0:23.6 11:51/M
605 Carolee Churchill Woodland CA 1001 32 F 98 30-39 36:51.9 37:31.8 0:39.8 11:53/M
606 Jeff Alden Lincoln CA 817 38 M 58 30-39 36:52.4 38:01.9 1:09.5 11:54/M
607 Lorin Harrott Carmichael CA 2068 43 F 69 40-49 36:54.8 37:27.9 0:33.1 11:54/M
608 Sydney Harrott 1251 8 F 44 1-12 36:54.8 37:28.0 0:33.1 11:54/M
609 Kaylee Mann Roseville CA 1485 11 F 45 1-12 36:56.9 45:27.2 8:30.2 11:55/M
610 Steve Michaud Sacramento CA 1533 51 M 39 50-59 36:57.4 37:35.3 0:37.8 11:55/M
611 Nik Weber Magalia CA 1938 44 M 46 40-49 36:57.9 37:35.8 0:37.8 11:55/M
612 Kiki Weber Magalia CA 1937 13 F 30 13-15 36:58.1 37:36.1 0:37.9 11:55/M
613 Jennifer Liu Roseville CA 1443 31 F 99 30-39 37:02.2 37:45.9 0:43.7 11:57/M
614 Shayanne Uzan Sacramento CA 2065 17 F 6 16-18 37:02.8 37:09.7 0:06.8 11:57/M
615 Rob Rash Roseville CA 1683 57 M 40 50-59 37:03.9 37:25.8 0:21.9 11:57/M
616 Anya Haugen Sonora CA 2203 10 F 46 1-12 37:06.8 37:09.9 0:03.0 11:58/M
617 Pascale Thomas Elk Grove CA 2182 39 F 100 30-39 37:07.9 38:26.1 1:18.2 11:58/M
618 Krista Miner Sacramento CA 1546 10 F 47 1-12 37:08.8 37:23.4 0:14.5 11:59/M
619 Kathy Schulz Sacramento CA 1771 41 F 70 40-49 37:12.2 37:49.6 0:37.3 12:00/M
620 Charlotte Daddow Sutter CA 1047 34 F 101 30-39 37:16.6 38:31.6 1:14.9 12:01/M
621 Amy Da Silva Sacramento CA 1046 31 F 102 30-39 37:19.0 37:57.6 0:38.6 12:02/M
622 Elizabeth Mann Roseville CA 1483 37 F 103 30-39 37:20.6 45:51.2 8:30.5 12:03/M
623 Brandon White Granite Bay CA 1951 59 M 41 50-59 37:21.0 38:05.7 0:44.7 12:03/M
624 Summer Rolfe-Iirsh Sacramento CA 1720 38 F 104 30-39 37:21.7 37:40.8 0:19.1 12:03/M
625 Samantha Marcus Sacramento CA 1487 8 F 48 1-12 37:22.5 37:51.8 0:29.3 12:03/M
626 Rebecca Marcus Sacramento CA 1486 40 F 71 40-49 37:22.5 37:52.0 0:29.4 12:03/M
627 Carole Long Rio Lind CA 1449 55 F 31 50-59 37:26.4 37:32.2 0:05.7 12:05/M
628 Nancy Boyd Davis CA 904 62 F 13 60-69 37:37.1 38:10.0 0:32.8 12:08/M
629 Marylou Perea Woodland CA 1638 61 F 14 60-69 37:37.8 38:09.9 0:32.1 12:08/M
630 Jeffery Fehler Elk Grove CA 1137 48 M 47 40-49 37:41.9 38:18.0 0:36.0 12:09/M
631 Andrea Goodwin El Dorado Hills CA 1207 37 F 105 30-39 37:46.7 38:33.6 0:46.8 12:11/M
632 Vicki Austin-Simpson Elk Grove CA 2223 56 F 32 50-59 37:50.0 38:05.3 0:15.3 12:12/M
633 Brian Van Camp Sacramento CA 2243 73 M 7 70-79 37:51.0 38:48.0 0:57.0 12:13/M
634 Miranda Zaragoza El Dorado CA 1999 14 F 31 13-15 37:51.5 38:27.3 0:35.8 12:13/M
635 Debora Zaragoza El Dorado CA 1998 47 F 72 40-49 37:52.1 38:27.2 0:35.0 12:13/M
636 Carley Zaragoza El Dorado CA 1997 12 F 49 1-12 37:52.3 38:27.3 0:34.9 12:13/M
637 Ayane Kroupa Elk Grove CA 1396 5 F 50 1-12 38:07.9 38:09.3 0:01.4 12:18/M
638 Liset Correa Sacramento CA 1027 11 F 51 1-12 38:10.6 38:31.1 0:20.5 12:19/M
639 Lori Holloway Shingle Springs CA 1312 37 F 106 30-39 38:13.9 39:40.4 1:26.4 12:20/M
640 Suzanne Reese Campbell CA 1692 39 F 107 30-39 38:14.1 39:31.1 1:17.0 12:20/M
641 Michelle Noll Elk Grove CA 1599 47 F 73 40-49 38:15.2 38:50.7 0:35.5 12:20/M
642 Lora Gini Elk Grove CA 1190 44 F 74 40-49 38:15.5 38:50.7 0:35.2 12:20/M
643 Robert Wils Sacramento CA 1959 63 M 13 60-69 38:19.1 38:35.8 0:16.7 12:22/M
644 Tiffany Abdu Sacramento CA 802 34 F 108 30-39 38:19.1 38:50.0 0:30.8 12:22/M
645 Fiona Abdu Sacramento CA 801 5 F 52 1-12 38:19.2 38:50.0 0:30.8 12:22/M
646 Cathy Blair Dixon CA 891 49 F 75 40-49 38:19.3 43:18.1 4:58.8 12:22/M
647 Jane Frybarger Rancho Cordova CA 1160 46 F 76 40-49 38:20.0 39:19.5 0:59.5 12:22/M
648 Ginger Spurlock Sacramento CA 2107 48 F 77 40-49 38:21.6 39:04.5 0:42.9 12:22/M
649 Allyson Spurlock Sacramento CA 2106 10 F 53 1-12 38:21.7 39:03.7 0:42.0 12:22/M
650 Kimberly Brown Elk Grove CA 936 53 F 33 50-59 38:24.4 38:51.4 0:27.0 12:23/M
651 Elizabeth Hardie Folsom CA 2050 34 F 109 30-39 38:24.9 39:32.3 1:07.4 12:23/M
652 Stephanie Magalski Vacaville CA 1472 35 F 110 30-39 38:29.3 38:43.1 0:13.8 12:25/M
653 Rosaura Hernandez Sacramento CA 1288 24 F 52 19-29 38:34.9 38:59.7 0:24.7 12:26/M
654 Kim Piper Meadow Vista CA 1651 33 F 111 30-39 38:35.8 38:58.5 0:22.6 12:27/M
655 Abhiram Mupparaju Sacramento CA 1574 9 M 47 1-12 38:36.4 38:44.0 0:07.6 12:27/M
656 Anna Piper Meadow Vista CA 1648 6 F 54 1-12 38:37.5 38:58.4 0:20.9 12:27/M
657 Babitha Mupparaju Sacramento CA 1575 42 F 78 40-49 38:37.9 38:45.2 0:07.3 12:27/M
658 Alicia Wilson Elk Grove CA 1960 40 F 79 40-49 38:42.2 39:34.9 0:52.6 12:29/M
659 James Northon Sacramento CA 1602 16 M 9 16-18 38:46.2 39:26.4 0:40.1 12:30/M
660 Katie Friedman Sacramento CA 1155 28 F 53 19-29 38:47.5 39:42.2 0:54.6 12:31/M
661 Jack Craig Lincoln CA 1030 72 M 8 70-79 38:50.9 39:27.5 0:36.6 12:32/M
662 Amanda McNicholas Sacramento CA 2239 34 F 112 30-39 38:58.0 39:55.0 0:56.9 12:34/M
663 Dakota Chinca Sacramento CA 998 11 F 55 1-12 38:58.2 39:15.7 0:17.4 12:34/M
664 Jillian Barna South Lake Tahoe CALIF 2148 30 F 113 30-39 38:59.9 39:30.7 0:30.7 12:35/M
665 Drew Crawford Yuba City CA 1031 44 M 48 40-49 39:04.3 47:34.7 8:30.4 12:36/M
666 Gavin Crawford Yuba City CA 1032 7 M 48 1-12 39:04.5 47:34.8 8:30.2 12:36/M
667 Tiffany Galindo Antelope CA 1169 39 F 114 30-39 39:08.1 40:03.0 0:54.9 12:37/M
668 Gayle Meza Sacramento CA 1531 57 F 34 50-59 39:09.1 39:47.6 0:38.4 12:38/M
669 Nichole Harshbarger Fair Oaks CA 1253 33 F 115 30-39 39:15.1 40:25.3 1:10.1 12:40/M
670 Thoman Provenzano Rocklin CA 1670 25 M 29 19-29 39:15.6 40:50.3 1:34.7 12:40/M
671 Saxy Provenzano Rocklin CA 1669 29 F 54 19-29 39:16.3 40:50.4 1:34.1 12:40/M
672 Stephanie Sonnier El Dorado Hills CA 1821 27 F 55 19-29 39:24.7 41:28.0 2:03.2 12:43/M
673 Luke Rogers Pollock Pines CA 1718 13 M 27 13-15 39:24.9 39:33.0 0:08.1 12:43/M
674 Kaelynn North Stockton CA 1601 12 F 56 1-12 39:25.0 39:33.0 0:07.9 12:43/M
675 Richard Ressa Stockton CA 1696 44 M 49 40-49 39:25.4 40:42.7 1:17.3 12:43/M
676 Lindsey Rogers Pollock Pines CA 1717 17 F 7 16-18 39:25.8 39:33.2 0:07.4 12:43/M
677 Unknown Partic. 2249 2249 M 1 0- 0 39:26.1 40:44.9 1:18.8 12:43/M
678 Isabella Parks 1623 10 F 57 1-12 39:27.3 39:36.7 0:09.3 12:44/M
679 Izzy Taylor 1862 11 F 58 1-12 39:27.9 39:36.6 0:08.7 12:44/M
680 William Henley Auburn CA 1278 17 M 10 16-18 39:30.3 39:38.8 0:08.5 12:45/M
681 Tiffany Sonnier Rancho Cordova CA 1822 30 F 116 30-39 39:31.0 41:33.0 2:01.9 12:45/M
682 Kristen Wenzl Auburn CA 1943 23 F 56 19-29 39:32.0 39:58.1 0:26.0 12:45/M
683 Lori Hebenstreit Elk Grove CA 1273 38 F 117 30-39 39:32.3 40:16.7 0:44.4 12:45/M
684 Cassandra Brown Sacramento CA 933 21 F 57 19-29 39:33.6 40:04.5 0:30.9 12:45/M
685 Chelsea Greco Gold River CA 1213 22 F 58 19-29 39:34.1 40:05.6 0:31.5 12:46/M
686 Anna Cullifer Sacramento CA 1042 33 F 118 30-39 39:36.6 40:13.6 0:36.9 12:46/M
687 Tracy Kelly Sacramento CA 1370 41 F 80 40-49 39:37.5 40:15.0 0:37.4 12:47/M
688 Marlena Applegate Sacramento CA 843 34 F 119 30-39 39:39.6 39:58.4 0:18.7 12:47/M
689 Rebecca Beasley Valley Springs CA 875 39 F 120 30-39 39:39.6 40:20.1 0:40.4 12:47/M
690 Mackenzie Santos Rancho Cordova CA 1752 8 F 59 1-12 39:50.0 40:20.4 0:30.4 12:51/M
691 Sonja Wilson Rio Linda CA 1962 35 F 121 30-39 39:50.7 40:22.5 0:31.8 12:51/M
692 Lynn Matsuda Sacramento CA 1495 61 F 15 60-69 39:51.2 40:30.7 0:39.4 12:51/M
693 Lenea Parrott Sacramento CA 1626 54 F 35 50-59 39:52.2 40:50.3 0:58.0 12:52/M
694 April Sanchez Antelope CA 1744 29 F 59 19-29 40:04.7 40:53.5 0:48.7 12:55/M
695 Kate Woodall Auburn CA 1981 17 F 8 16-18 40:07.3 40:48.2 0:40.9 12:56/M
696 Robyn Woodall Auburn CA 1982 56 F 36 50-59 40:07.7 40:48.5 0:40.8 12:56/M
697 Pamela Herzog Granite Bay CA 1291 61 F 16 60-69 40:12.2 40:26.2 0:13.9 12:58/M
698 Sophia Molina Sacramento CA 1555 10 F 60 1-12 40:12.8 40:33.4 0:20.6 12:58/M
699 Bonnie Lewis Gold River CA 1431 71 F 3 70-79 40:19.5 40:59.0 0:39.4 13:00/M
700 Scott Hoffman Tracy CA 1309 43 M 50 40-49 40:22.8 40:47.2 0:24.4 13:01/M
 
Place Name City Bib No Age Gender Age Group Chip Time Gun Time Chip Diff Pace
701 Megan Reyes Elk Grove CA 1698 29 F 60 19-29 40:23.1 41:21.9 0:58.8 13:02/M
702 Jessica Jopson Rio Oso CA 1358 29 F 61 19-29 40:23.7 41:27.2 1:03.5 13:02/M
703 Sadie Silberman Auburn CA 2022 8 F 61 1-12 40:24.5 41:04.5 0:40.0 13:02/M
704 Norine Marks Auburn CA 2021 55 F 37 50-59 40:25.1 41:04.3 0:39.2 13:02/M
705 Billie Dawes Sacramento CA 1063 63 F 17 60-69 40:25.7 41:15.1 0:49.4 13:02/M
706 Naomi Aoyagi Sacramento CA 841 61 F 18 60-69 40:27.0 41:07.1 0:40.0 13:03/M
707 Heather Lucas Dixon CA 1457 29 F 62 19-29 40:36.9 41:23.6 0:46.7 13:06/M
708 Jack Slone Rancho Cordova CA 1804 12 M 49 1-12 40:42.4 41:58.1 1:15.6 13:08/M
709 Jill Carter South Lake Tahoe CA 978 64 F 19 60-69 40:43.8 41:13.7 0:29.8 13:08/M
710 Ty Ly-Tran Elk Grove CA 1462 39 F 122 30-39 40:44.7 41:45.5 1:00.7 13:08/M
711 Colleen McCarthy Fair Oaks CA 1502 54 F 38 50-59 40:49.7 41:16.2 0:26.4 13:10/M
712 Charlize Ryan Antelopoe CA 1735 11 F 62 1-12 40:50.1 41:23.8 0:33.7 13:10/M
713 Kham Khanrasa Sacramento CA 1372 42 F 81 40-49 40:50.3 41:24.0 0:33.7 13:10/M
714 Amanda Orlandella Elk Grove CA 2179 36 F 123 30-39 40:50.9 41:10.1 0:19.2 13:10/M
715 Dennis Kauffman Carmichael CA 1364 42 M 51 40-49 40:51.2 41:22.9 0:31.7 13:11/M
716 Jenny Davis Sacramento CA 1058 42 F 82 40-49 40:54.1 41:35.8 0:41.7 13:12/M
717 Isabel Clark Auburn CA 1007 14 F 32 13-15 40:55.7 41:20.6 0:24.9 13:12/M
718 Mike Davis Elk Grove CA 1059 51 M 42 50-59 40:56.1 41:54.3 0:58.1 13:12/M
719 Rebecca Cisneros-Clark Auburn CA 1003 31 F 124 30-39 40:56.2 41:20.8 0:24.6 13:12/M
720 Linda Shaw Antelope CA 1781 66 F 20 60-69 40:59.1 41:37.6 0:38.4 13:13/M
721 Carlene Guzman Elk Grove CA 2004 50 F 39 50-59 41:03.8 41:29.8 0:26.0 13:15/M
722 Jenn Kramer Auburn CA 1392 28 F 63 19-29 41:07.1 41:38.3 0:31.2 13:16/M
723 Alex Wong Elk Grove CA 1972 7 M 50 1-12 41:11.1 41:54.1 0:43.0 13:17/M
724 Mary Leveroni Elk Grove CA 1425 8 F 63 1-12 41:11.3 41:54.3 0:42.9 13:17/M
725 Kevin Leveroni Elk Grove CA 1424 46 M 52 40-49 41:15.9 41:58.6 0:42.6 13:18/M
726 Matt Endert Sacramento CA 1105 31 M 59 30-39 41:16.1 41:58.3 0:42.1 13:19/M
727 Linda Shuman-Prins Auburn CA 1791 55 F 40 50-59 41:20.6 41:47.0 0:26.4 13:20/M
728 Jessica Johnson Sebastopol CA 1351 32 F 125 30-39 41:21.9 42:02.3 0:40.4 13:20/M
729 Natalie Carnes Carmichael CA 969 18 F 9 16-18 41:26.6 41:44.4 0:17.7 13:22/M
730 Liam Sullivan Sacramento CA 1851 10 M 51 1-12 41:28.5 44:38.1 3:09.6 13:23/M
731 Lea Haro Sacramento CA 2245 39 F 126 30-39 41:28.6 44:37.8 3:09.2 13:23/M
732 Lisa Johnson Elk Grove CA 1352 42 F 83 40-49 41:28.7 42:20.4 0:51.7 13:23/M
733 Lauren Brodehl Lodi CA 927 15 F 33 13-15 41:29.4 42:53.2 1:23.7 13:23/M
734 Dennette Dakis Elk Grove CA 1054 42 F 84 40-49 41:29.5 42:13.3 0:43.7 13:23/M
735 Natalie Wong Elk Grove CA 1974 36 F 127 30-39 41:29.8 42:13.5 0:43.6 13:23/M
736 Laurie Cotulla Lodi CA 1028 68 F 21 60-69 41:30.6 42:53.4 1:22.8 13:23/M
737 Sarah Butters Auburn CA 956 15 F 34 13-15 41:32.8 42:13.8 0:40.9 13:24/M
738 Rich Toledo Elk Grove CA 2059 47 M 53 40-49 41:35.1 43:03.5 1:28.4 13:25/M
739 Stacy Toledo Elk Grove CA 2060 41 F 85 40-49 41:35.3 43:03.5 1:28.2 13:25/M
740 Judi Butters Auburn CA 955 47 F 86 40-49 41:37.8 42:18.5 0:40.7 13:25/M
741 Kara Safonov Sacramento 1739 32 F 128 30-39 41:40.9 43:04.8 1:23.9 13:26/M
742 Paula Jean Whitney Citrus Heights CA 1955 34 F 129 30-39 41:41.6 43:05.0 1:23.4 13:27/M
743 Glenn Carson Sacramento CA 972 58 M 43 50-59 41:50.5 42:09.2 0:18.7 13:30/M
744 Rajanvir Mahal Sacramento CA 1474 36 M 60 30-39 41:54.5 43:05.1 1:10.5 13:31/M
745 Inderpal Biring Sacramento CA 889 36 F 130 30-39 41:55.2 43:05.5 1:10.2 13:31/M
746 Mario Andrews Sacramento CA 837 29 M 30 19-29 41:57.5 42:30.8 0:33.2 13:32/M
747 Brenda Ramirez Roseville CA 1680 54 F 41 50-59 42:03.5 42:33.5 0:30.0 13:34/M
748 Twylla Winslow Shingle Springs CA 1964 56 F 42 50-59 42:04.9 42:34.4 0:29.5 13:34/M
749 Chris Stafford West Sacramento CA 1829 13 M 28 13-15 42:07.3 42:51.5 0:44.1 13:35/M
750 Shannon Grant Milton-Freewater OR 1211 31 F 131 30-39 42:10.8 43:12.9 1:02.0 13:36/M
751 Kari Hartwick Carmichael CA 1256 39 F 132 30-39 42:10.9 42:54.8 0:43.9 13:36/M
752 Harold Brown Elk Grove CA 934 63 M 14 60-69 42:14.4 42:42.0 0:27.5 13:37/M
753 Christi Gohl Rocklin CA 1194 44 F 87 40-49 42:15.8 42:50.2 0:34.3 13:38/M
754 Jacquie Brinkley Cameron Park CA 924 57 F 43 50-59 42:16.0 43:02.3 0:46.3 13:38/M
755 Haleigh Leake Sacramento CA 1418 11 F 64 1-12 42:18.7 42:30.0 0:11.3 13:39/M
756 Gayle Eggleston Sacramento CA 2009 62 F 22 60-69 42:19.7 42:57.3 0:37.6 13:39/M
757 Amber Gizonos Dixon CA 1191 18 F 10 16-18 42:25.4 43:13.3 0:47.9 13:41/M
758 Ct Tom 9521 Foulks Ranch Drive CA 1878 52 F 44 50-59 42:25.4 42:48.5 0:23.0 13:41/M
759 Carmen Briscoe Sacramento CA 2144 40 F 88 40-49 42:27.2 42:53.0 0:25.8 13:42/M
760 Mikki Williams Galt CA 1957 51 F 45 50-59 42:30.2 42:58.6 0:28.4 13:43/M
761 Becky Broadbent Sacramento CA 926 53 F 46 50-59 42:30.3 42:58.5 0:28.2 13:43/M
762 Del Retha Haugen Sonora CA 1263 57 F 47 50-59 42:31.3 42:43.7 0:12.3 13:43/M
763 Sarah Taylor Rancho Cordova CA 1863 28 F 64 19-29 42:32.8 43:27.7 0:54.9 13:43/M
764 Courtney Magalski Vacaville CA 1471 14 F 35 13-15 42:33.9 43:16.9 0:43.0 13:44/M
765 Kim Tsumura Elk Grove CA 1890 47 F 89 40-49 42:36.8 43:22.1 0:45.2 13:45/M
766 Dawn Cornelius Sacramento CA 1023 44 F 90 40-49 42:37.8 43:20.2 0:42.3 13:45/M
767 Cari Uda Sacramento CA 1896 46 F 91 40-49 42:38.0 43:23.0 0:45.0 13:45/M
768 Laurel Renner Sonora CA 2204 11 F 65 1-12 42:40.3 42:43.7 0:03.4 13:46/M
769 Melaney Stricklin Citrus Heights CA 1848 35 F 133 30-39 42:41.3 43:09.1 0:27.7 13:46/M
770 Lynn Collins Carmichael CA 1016 62 F 23 60-69 42:41.8 43:25.7 0:43.8 13:46/M
771 Brenda Vanderwalt Orangevale CA 1906 39 F 134 30-39 42:42.1 43:09.5 0:27.4 13:46/M
772 Glenn Holsonbake Folsom CA 1316 60 M 15 60-69 42:42.6 43:07.3 0:24.7 13:46/M
773 Riana Farina Sacramento CA 1132 8 F 66 1-12 42:43.0 43:17.9 0:34.8 13:47/M
774 Mimi Abilo Elk Grove CA 806 48 F 92 40-49 42:43.3 44:13.3 1:29.9 13:47/M
775 Rosemary Breitwieser Pollock Pines CA 914 32 F 135 30-39 42:44.8 43:36.9 0:52.0 13:47/M
776 Nicholaus Pyle West Sacramento CA 1671 25 M 31 19-29 42:49.0 44:15.5 1:26.4 13:49/M
777 Jennifer Clary West Sacramento CA 1008 30 F 136 30-39 42:52.7 44:18.1 1:25.3 13:50/M
778 Chrysta Neal Sacramento CA 1584 23 F 65 19-29 42:55.5 43:20.7 0:25.1 13:51/M
779 Marissa Cazares Sacramento CA 2187 21 F 66 19-29 42:59.8 43:23.2 0:23.3 13:52/M
780 Tamacina Castellanos Sacramento CA 2170 45 M 54 40-49 43:06.7 43:29.8 0:23.0 13:54/M
781 Fran Edelstein Sacramento CA 2036 62 F 24 60-69 43:12.4 43:46.1 0:33.7 13:56/M
782 Candice Thawley Roseville CA 1866 38 F 137 30-39 43:12.5 43:53.2 0:40.6 13:56/M
783 Ivy Child Carmichael CA 990 10 F 67 1-12 43:13.6 43:31.4 0:17.8 13:56/M
784 Mary Child Carmichael CA 991 39 F 138 30-39 43:13.8 43:31.3 0:17.5 13:56/M
785 Olivia Child 992 8 F 68 1-12 43:14.3 43:32.1 0:17.8 13:57/M
786 Julie Evans Sacramento CA 1116 31 F 139 30-39 43:17.1 43:37.8 0:20.6 13:58/M
787 Sophia Aguilar Sacramento CA 2053 49 F 93 40-49 43:17.1 43:47.4 0:30.3 13:58/M
788 Asheley Jones Sacramento CA 1355 34 F 140 30-39 43:18.3 43:39.2 0:20.9 13:58/M
789 Mary Yerkes Orangevale CA 1989 40 F 94 40-49 43:20.4 44:31.4 1:10.9 13:59/M
790 Leo Muraoka 1577 8 M 52 1-12 43:23.3 43:49.3 0:26.0 14:00/M
791 Carol Davis Elk Grove CA 1057 46 F 95 40-49 43:23.8 44:21.4 0:57.6 14:00/M
792 Sandy Slaton Auburn CA 1802 67 F 25 60-69 43:28.2 44:17.7 0:49.4 14:01/M
793 Beverly Weatherford Sacramento CA 2176 63 F 26 60-69 43:30.9 44:23.5 0:52.6 14:02/M
794 Joe Muraoka 1576 9 M 53 1-12 43:38.2 44:02.4 0:24.1 14:05/M
795 Donna Sullivan Citrus Heights CA 1849 48 F 96 40-49 43:38.9 45:00.2 1:21.2 14:05/M
796 Debbie Mathis Citrus Heights CA 2016 48 F 97 40-49 43:39.2 45:00.2 1:21.0 14:05/M
797 Natalie Elrod Antelope CA 1103 33 F 141 30-39 43:46.2 44:45.8 0:59.6 14:07/M
798 Sky Staten Sacramento CA 1833 32 F 142 30-39 43:49.7 44:45.6 0:55.8 14:08/M
799 Michael Marshall Lincoln CA 1488 36 M 61 30-39 43:50.4 48:31.6 4:41.1 14:08/M
800 Christina Vasquez Sacramento CA 1909 31 F 143 30-39 43:52.3 45:11.2 1:18.9 14:09/M
 
Place Name City Bib No Age Gender Age Group Chip Time Gun Time Chip Diff Pace
801 Karl Bucholz Carmichael CA 940 77 M 9 70-79 43:57.0 44:34.6 0:37.5 14:11/M
802 Elliott Johnson Sacramento CA 1350 27 M 32 19-29 44:02.6 44:39.6 0:37.0 14:12/M
803 Ashley Brady Ione CA 2139 23 F 67 19-29 44:02.8 44:40.0 0:37.1 14:12/M
804 Karen Haynes Sacramento CA 1269 61 F 27 60-69 44:06.1 44:17.9 0:11.7 14:14/M
805 Charlie Armstrong Elk Grove CA 847 14 M 29 13-15 44:07.1 45:05.2 0:58.1 14:14/M
806 Jaime Curtis Lincoln CA 1045 36 F 144 30-39 44:07.1 48:38.2 4:31.1 14:14/M
807 Steph Armstrong Elk Grove CA 848 40 F 98 40-49 44:07.6 45:05.8 0:58.1 14:14/M
808 Sandra Jopson Rio Oso CA 2049 56 F 48 50-59 44:09.6 45:17.6 1:08.0 14:15/M
809 Amanda Shea Carmichael CA 1782 25 F 68 19-29 44:10.3 44:51.8 0:41.5 14:15/M
810 Amy Ham West Sacramento CA 1236 36 F 145 30-39 44:12.0 45:02.5 0:50.5 14:15/M
811 Kathaleen Reed Sacramento CA 1690 53 F 49 50-59 44:15.0 44:45.0 0:30.0 14:16/M
812 Nikki Thornton Rocklin CA 1873 43 F 99 40-49 44:15.8 52:47.2 8:31.4 14:16/M
813 Megan Thornton Rocklin CA 1872 6 F 69 1-12 44:15.9 52:46.7 8:30.7 14:16/M
814 Gwendolyn Anthony Antelope CA 838 31 F 146 30-39 44:17.3 44:56.5 0:39.2 14:17/M
815 Victoria Ontiveres Sacramento CA 2051 27 F 69 19-29 44:18.9 46:40.3 2:21.3 14:17/M
816 Pelar Hayes Roseville CA 1268 40 F 100 40-49 44:21.7 45:03.3 0:41.6 14:18/M
817 Diana Grgich Elk Grove CA 1216 52 F 50 50-59 44:27.7 45:32.7 1:05.0 14:20/M
818 Lea Grgich Elk Grove CA 1217 15 F 36 13-15 44:28.1 45:33.1 1:04.9 14:21/M
819 Lori Mejia Yuba City CA 1524 58 F 51 50-59 44:30.1 45:45.3 1:15.1 14:21/M
820 Ed Mejia Yuba City CA 1523 61 M 16 60-69 44:30.8 45:44.7 1:13.8 14:21/M
821 Debbie Gates Rocklin CA 1179 59 F 52 50-59 44:31.3 45:13.5 0:42.2 14:22/M
822 Richard Barna South Lake Tahoe CA 867 58 M 44 50-59 44:32.7 45:05.3 0:32.6 14:22/M
823 Kim Ohara Sacramento CA 1610 40 F 101 40-49 44:33.0 44:57.4 0:24.3 14:22/M
824 Steven Uribe Granite Bay CA 1898 59 M 45 50-59 44:34.0 45:19.8 0:45.8 14:23/M
825 Debbie Uribe Granite Bay CA 1897 58 F 53 50-59 44:34.3 45:19.5 0:45.1 14:23/M
826 Guadalupe Bugarin Galt CA 943 30 F 147 30-39 44:38.5 45:10.9 0:32.3 14:24/M
827 Marian Hutnick Elk Grove CA 1329 59 F 54 50-59 44:40.0 45:15.6 0:35.5 14:25/M
828 Autumn Anderson Sacramento CA 827 18 F 11 16-18 44:42.6 46:11.4 1:28.7 14:25/M
829 Barbara Anderson Sacramento CA 828 53 F 55 50-59 44:43.2 46:12.3 1:29.0 14:25/M
830 Melanie Wilkerson Roseville CA 1956 40 F 102 40-49 44:59.0 45:12.1 0:13.1 14:31/M
831 Sukanya Bhattacharya Sacramento CA 883 28 F 70 19-29 45:05.3 45:27.6 0:22.2 14:33/M
832 Sam Niebank Roseville CA 1596 44 M 55 40-49 45:06.9 46:01.6 0:54.6 14:33/M
833 Alissa Doljanin Sacramento CA 1077 44 F 103 40-49 45:07.6 45:29.7 0:22.1 14:33/M
834 Michelle Bonilla West Sacramento CA 895 42 F 104 40-49 45:24.5 45:55.3 0:30.8 14:39/M
835 Ryan Bonilla West Sacramento CA 896 9 M 54 1-12 45:24.5 45:55.1 0:30.5 14:39/M
836 Biff Johnson Sacramento CA 1348 62 M 17 60-69 45:24.5 46:32.8 1:08.2 14:39/M
837 Pamela Schulz Stockton CA 2041 39 F 148 30-39 45:28.1 46:05.7 0:37.6 14:40/M
838 Katie Crawford Yuba City CA 1034 9 F 70 1-12 45:28.6 53:58.4 8:29.8 14:40/M
839 Halley Quinonez Dixon CA 1676 11 F 71 1-12 45:35.4 46:22.8 0:47.3 14:42/M
840 Dan Millsap Folsom CA 1544 37 M 62 30-39 45:35.9 46:47.9 1:12.0 14:42/M
841 Dano Quinonez Dixon CA 1675 12 M 55 1-12 45:37.1 46:25.1 0:48.0 14:43/M
842 Lynnell Neumaier Roseville CA 1592 50 F 56 50-59 45:38.3 46:08.3 0:29.9 14:43/M
843 Emma Madruga Sacramento CA 1469 11 F 72 1-12 45:51.3 47:36.4 1:45.1 14:47/M
844 Vicki Farina Sacramento CA 2224 49 F 105 40-49 45:51.3 46:26.0 0:34.7 14:47/M
845 Taylor Byrne Sacramento CA 958 11 F 73 1-12 45:51.8 47:36.2 1:44.3 14:47/M
846 Courtney Keller Acampo CA 1366 29 F 71 19-29 45:52.1 47:30.3 1:38.1 14:48/M
847 Dan Quinonez Dixon CA 1674 49 M 56 40-49 45:54.4 46:41.3 0:46.8 14:48/M
848 Laura Lomeli Galt CA 1448 34 F 149 30-39 45:58.5 46:30.6 0:32.1 14:50/M
849 Evangeline Dahlberg Courtland CA 1052 67 F 28 60-69 45:58.7 46:51.2 0:52.4 14:50/M
850 Debra Stickles Sacramento CA 1841 33 F 150 30-39 46:03.6 46:30.8 0:27.1 14:51/M
851 Erin Thuston Sacramento CA 1874 30 F 151 30-39 46:05.5 46:43.4 0:37.9 14:52/M
852 Rosemarie MacKin Placerville CA 1466 56 F 57 50-59 46:08.2 47:21.7 1:13.5 14:53/M
853 Eileen Metzger Roseville CA 1528 68 F 29 60-69 46:19.0 46:49.1 0:30.1 14:56/M
854 Doreen Chew Carmichael CA 989 55 F 58 50-59 46:20.7 46:58.9 0:38.1 14:57/M
855 Bill Copes Sacramento CA 1022 58 M 46 50-59 46:26.2 47:13.4 0:47.1 14:59/M
856 Karen Snyder Sacramento CA 1817 52 F 59 50-59 46:28.6 46:56.4 0:27.8 14:59/M
857 Candace Segura Sacramento CA 1775 31 F 152 30-39 46:28.8 47:29.0 1:00.2 14:59/M
858 Khadijah Hargett Oakland CA 1245 49 F 106 40-49 46:29.3 47:27.5 0:58.2 15:00/M
859 Lily Ritterskamp Carmichael CA 1709 62 F 30 60-69 46:32.0 47:26.6 0:54.5 15:01/M
860 Carol Dillon Folsom CA 1075 58 F 60 50-59 46:35.1 47:22.1 0:47.0 15:02/M
861 Kathleen Vales Elk Grove CA 1899 47 F 107 40-49 46:35.8 47:40.7 1:04.9 15:02/M
862 B Miner Sacramento CA 1545 47 F 108 40-49 46:39.7 47:21.4 0:41.7 15:03/M
863 Natalie Kronk Sacramento CA 1394 31 F 153 30-39 46:41.9 47:22.3 0:40.3 15:04/M
864 William McKechnie West Sacramento CA 1510 54 M 47 50-59 46:44.5 47:29.2 0:44.6 15:05/M
865 Alexandra Karratti Elk Grove CA 1363 29 F 72 19-29 46:45.7 1:00:13.2 13:27.4 15:05/M
866 Margaret Keefe Sacramento CA 1365 60 F 31 60-69 46:49.7 47:27.6 0:37.9 15:06/M
867 Erika Jimenez Sacramento CA 1345 10 F 74 1-12 46:54.4 47:31.1 0:36.7 15:08/M
868 Lourdes Jimenez Sacramento CA 1346 41 F 109 40-49 46:54.8 47:31.1 0:36.2 15:08/M
869 Thomas Hatzeson Rancho Palos Verdes CA 1262 80 M 2 80-99 46:56.4 47:33.9 0:37.5 15:08/M
870 Lauren Paulline 1634 10 F 75 1-12 47:00.6 47:33.6 0:32.9 15:10/M
871 Shelley Quinonez Dixon CA 1677 42 F 110 40-49 47:02.5 47:50.1 0:47.6 15:10/M
872 Zara Heffner Sacramento CA 1274 26 F 73 19-29 47:04.4 47:26.4 0:22.0 15:11/M
873 Cecilia Cobian Sacramento CA 1010 42 F 111 40-49 47:06.4 48:35.6 1:29.2 15:12/M
874 Neeki Gilani Sacramento CA 2001 30 F 154 30-39 47:10.1 47:58.7 0:48.5 15:13/M
875 Ronna Gilani Hollister CA 1187 64 F 32 60-69 47:10.7 47:58.7 0:48.0 15:13/M
876 Bill Howe Sacramento CA 2008 67 M 18 60-69 47:14.5 48:10.6 0:56.0 15:14/M
877 Emelina Logan Stockton CA 1447 38 F 155 30-39 47:16.1 48:03.2 0:47.1 15:15/M
878 Tony Corona Elk Grove CA 1025 29 M 33 19-29 47:33.4 49:00.3 1:26.8 15:20/M
879 Jerry Carter South Lake Tahoe CA 977 67 M 19 60-69 47:40.2 48:09.4 0:29.1 15:23/M
880 Elaine Dano Rancho Cordova CA 1056 31 F 156 30-39 47:45.9 48:37.3 0:51.4 15:24/M
881 A. Fujitani Sacramento CA 1164 79 F 4 70-79 47:46.4 48:39.5 0:53.1 15:25/M
882 Aimee Corona Elk Grove CA 1024 29 F 74 19-29 47:48.9 49:16.5 1:27.5 15:25/M
883 Mateo Topete Galt CA 1886 13 M 30 13-15 47:58.7 48:46.0 0:47.3 15:28/M
884 Jennifer Topete Galt CA 1884 40 F 112 40-49 47:58.8 48:46.1 0:47.3 15:28/M
885 Marcella Jamerson Richmond CA 2112 48 F 113 40-49 48:01.1 49:00.8 0:59.6 15:29/M
886 Kristin Neal Vacaville CA 1585 46 F 114 40-49 48:02.9 49:29.1 1:26.2 15:30/M
887 Robin Concannon Sacramento CA 1018 51 F 61 50-59 48:03.0 49:29.4 1:26.3 15:30/M
888 Justin McQueary Glendale AZ 1516 25 M 34 19-29 48:04.9 49:06.2 1:01.3 15:30/M
889 Verna Sims Fairfield WA 1795 52 F 62 50-59 48:04.9 49:06.4 1:01.5 15:30/M
890 Louis Delzompo Granite Bay CA 1072 54 M 48 50-59 48:06.8 49:13.5 1:06.7 15:31/M
891 May Fong Sacramento CA 1142 66 F 33 60-69 48:07.1 48:51.8 0:44.6 15:31/M
892 Karen Sanchez Sac CA 1747 69 F 34 60-69 48:07.7 48:52.1 0:44.4 15:31/M
893 Rene Bean Antelope CA 874 48 F 115 40-49 48:26.7 49:08.8 0:42.0 15:37/M
894 Hilda Nepomuceno Pleasant Hill CA 1590 57 F 63 50-59 48:38.3 49:30.9 0:52.6 15:41/M
895 Keith Sax Carmichael CA 1754 41 M 57 40-49 48:39.1 49:52.1 1:13.0 15:42/M
896 Alison Mott Sacramento CA 1570 34 F 157 30-39 48:41.3 49:25.8 0:44.5 15:42/M
897 Larry Nepomuceno Pleasant Hill CA 1591 65 M 20 60-69 48:41.8 49:34.7 0:52.9 15:42/M
898 Delilah McDaniel Sac CA 1506 10 F 76 1-12 48:45.0 49:54.9 1:09.9 15:44/M
899 Caitlin McDaniel Carmichael CA 1504 6 F 77 1-12 48:47.0 49:56.8 1:09.8 15:44/M
900 Chris Tom-Albertson Sacramento CA 1879 60 F 35 60-69 48:51.8 49:08.0 0:16.1 15:45/M
 
Place Name City Bib No Age Gender Age Group Chip Time Gun Time Chip Diff Pace
901 Brenda Dreiling Elk Grove CA 1084 43 F 116 40-49 48:56.9 49:24.7 0:27.7 15:47/M
902 Priscilla Dreiling Elk Grove CA 1085 10 F 78 1-12 48:57.2 49:25.0 0:27.7 15:47/M
903 Shannon Healy Vacaville CA 1271 22 F 75 19-29 48:59.2 50:28.0 1:28.7 15:48/M
904 Lester Theofield Modesto CA 1867 18 M 11 16-18 49:01.6 53:54.8 4:53.1 15:49/M
905 Justin Hidahl Modesto CA 1294 23 M 35 19-29 49:02.9 53:54.6 4:51.7 15:49/M
906 Sharon Toland Sacramento CA 1877 60 F 36 60-69 49:07.9 49:38.8 0:30.9 15:51/M
907 Martha Mott Riverside CT 1571 60 F 37 60-69 49:24.1 49:24.1 15:56/M
908 Kathy Briem Sacramento CA 921 57 F 64 50-59 49:27.9 50:13.0 0:45.0 15:57/M
909 Karyn Snyder Lodi CA 1818 30 F 158 30-39 49:36.8 50:54.1 1:17.3 16:00/M
910 Lesli Faulk Sacramento CA 1136 57 F 65 50-59 49:37.1 50:06.6 0:29.4 16:00/M
911 Julie Valverde Sacramento CA 1901 56 F 66 50-59 49:39.4 50:09.5 0:30.0 16:01/M
912 Sandie Gilbert Lodi CA 1188 61 F 38 60-69 49:41.2 50:58.4 1:17.2 16:02/M
913 Kristine Metzker Sacramento CA 1529 50 F 67 50-59 49:49.2 50:32.2 0:43.0 16:04/M
914 Amy Shettlesworth Sacramento CA 1790 42 F 117 40-49 49:51.2 50:34.4 0:43.1 16:05/M
915 Heather Morris West Sacramento CA 2063 31 F 159 30-39 49:55.2 54:17.7 4:22.4 16:06/M
916 Monica Tralka-Rolfe Suisun CA 1888 22 F 76 19-29 50:02.9 51:31.8 1:28.9 16:08/M
917 Carlene Ambrosini Sacramento CA 825 48 F 118 40-49 50:08.7 50:48.6 0:39.9 16:10/M
918 Denton Gillenwater Sacramento CA 1189 48 M 58 40-49 50:09.9 50:49.6 0:39.7 16:11/M
919 Celia Sepulveda West Sacramento CA 2064 29 F 77 19-29 50:14.2 54:37.6 4:23.4 16:12/M
920 Keira Topete Galt CA 1885 8 F 79 1-12 50:19.7 51:06.4 0:46.7 16:14/M
921 Nicole Biffle Galt CA 886 29 F 78 19-29 50:20.4 51:06.7 0:46.2 16:14/M
922 Jeannette Hagen Gold River CA 1231 59 F 68 50-59 50:28.2 51:56.0 1:27.8 16:17/M
923 Eva Factor Sacramento CA 1123 8 F 80 1-12 50:29.3 50:45.3 0:15.9 16:17/M
924 Jennifer Lamb Sacramento CA 1407 58 F 69 50-59 50:30.8 51:59.1 1:28.3 16:17/M
925 Susan Lyttge Folsom CA 1463 42 F 119 40-49 50:32.1 51:03.7 0:31.6 16:18/M
926 Pelaney Fletcher Rocklin CA 2091 15 F 37 13-15 50:32.8 51:06.1 0:33.3 16:18/M
927 Lori Fletcher Rocklin CA 2090 44 F 120 40-49 50:33.1 51:06.4 0:33.3 16:18/M
928 Stephanie Lasike Vacaville CA 1414 29 F 79 19-29 50:35.2 52:02.9 1:27.7 16:19/M
929 Adriana Factor Sacramento CA 2130 45 F 121 40-49 50:35.3 50:50.6 0:15.3 16:19/M
930 Terry Mah Elk Grove CA 1473 64 F 39 60-69 50:38.4 51:42.2 1:03.8 16:20/M
931 Dawn Miller West Sacramento CA 1539 55 F 70 50-59 50:46.2 53:52.0 3:05.7 16:23/M
932 Rylee Cauvette Sacramento CA 2195 7 F 81 1-12 50:59.6 51:22.5 0:22.8 16:27/M
933 Michael McDaniel Carmichael CA 1507 39 M 63 30-39 51:00.2 52:09.5 1:09.3 16:27/M
934 Patty Coavette Sacramento CA 2196 44 F 122 40-49 51:00.2 51:23.1 0:22.8 16:27/M
935 Anjanette Morgan Antelope CA 1561 43 F 123 40-49 51:03.7 51:38.5 0:34.8 16:28/M
936 William Walker Fair Oaks CA 1924 53 M 49 50-59 51:05.8 52:02.4 0:56.5 16:29/M
937 Pamela Rogers Carmichael CA 1719 45 F 124 40-49 51:06.4 52:03.0 0:56.6 16:29/M
938 Jody Cronen Reno NV 1038 46 F 125 40-49 51:20.6 52:42.4 1:21.7 16:34/M
939 Suzi Howe Sacramento CA 2076 67 F 40 60-69 51:22.5 52:18.1 0:55.6 16:34/M
940 Jose Flores Sacramento CA 2044 33 M 64 30-39 51:31.1 53:21.6 1:50.4 16:37/M
941 Valerie Feldman Sacramento CA 1138 47 F 126 40-49 51:32.2 51:54.9 0:22.6 16:37/M
942 Vida Wisham Sacramento CA 1971 7 F 82 1-12 51:32.3 51:54.8 0:22.5 16:37/M
943 Frank Slaton Auburn CA 1801 65 M 21 60-69 51:32.4 52:21.6 0:49.1 16:37/M
944 Gina Ford Sacramento CA 1144 37 F 160 30-39 51:33.3 52:54.8 1:21.4 16:38/M
945 Jennifer Deleon Sacramento CA 1070 43 F 127 40-49 51:33.4 52:54.9 1:21.4 16:38/M
946 Beatriz Ressa Stockton CA 1695 34 F 161 30-39 51:33.8 52:51.8 1:18.0 16:38/M
947 Joyce Hirano Sacramento CA 1303 58 F 71 50-59 51:40.6 52:43.9 1:03.2 16:40/M
948 Christopher Francis San Jose CA 1148 41 M 59 40-49 51:41.3 53:02.3 1:21.0 16:40/M
949 Kristin Hanson Yuba City CA 1243 37 F 162 30-39 51:42.7 1:00:14.0 8:31.2 16:41/M
950 Jennifer Crawford Yuba City CA 1033 43 F 128 40-49 51:43.1 1:00:15.0 8:31.8 16:41/M
951 Shifra Gaman Oakland CA 1172 61 F 41 60-69 51:45.8 52:00.0 0:14.1 16:42/M
952 Elisa Sax Carmichael CA 1753 42 F 129 40-49 51:48.6 53:03.5 1:14.8 16:43/M
953 Sharon White Citrus Heights CA 1953 61 F 42 60-69 51:59.2 53:18.8 1:19.5 16:46/M
954 Alexis Hanson Yuba City CA 1241 7 F 83 1-12 52:09.9 1:00:41.1 8:31.1 16:49/M
955 Kaiya Mahieu Sacramento CA 1475 10 F 84 1-12 52:10.6 52:43.2 0:32.6 16:50/M
956 Angie Gordon Rancho Cordova CA 1208 66 F 43 60-69 52:15.7 52:29.6 0:13.8 16:51/M
957 Ella Rose-Malarkey Rancho Cordova CA 1729 7 F 85 1-12 52:19.2 53:51.3 1:32.0 16:53/M
958 Kris Rotshulte Sacramento CA 2028 52 F 72 50-59 52:20.3 53:14.8 0:54.5 16:53/M
959 Alison Rose Rancho Cordova CA 1723 37 F 163 30-39 52:28.2 54:00.1 1:31.9 16:55/M
960 David Rose Sacramento CA 1724 63 M 22 60-69 52:28.6 54:00.5 1:31.9 16:55/M
961 David Malarkey Rancho Cordova CA 1477 43 M 60 40-49 52:28.6 54:00.3 1:31.6 16:55/M
962 Sarah Griffith Lincoln CA 2149 58 F 73 50-59 52:33.7 55:53.9 3:20.2 16:57/M
963 Monique Stovall Sacramento CA 2225 38 F 164 30-39 52:46.8 54:25.1 1:38.3 17:01/M
964 Antoine Stovall Sacramento CA 2227 45 M 61 40-49 52:49.5 54:25.2 1:35.7 17:02/M
965 Anita Bunter West Sacramento CA 944 54 F 74 50-59 52:53.7 53:45.7 0:51.9 17:04/M
966 Elizabeth Charles Wilton CA 2233 26 F 80 19-29 52:56.5 54:09.2 1:12.6 17:05/M
967 Becky Grijalva Mather CA 1219 39 F 165 30-39 52:56.8 54:09.2 1:12.4 17:05/M
968 Tricia Poteet West Sacramento CA 1661 42 F 130 40-49 52:58.5 53:38.7 0:40.2 17:05/M
969 Bryan Poteet West Sacramento CA 1660 46 M 62 40-49 52:59.5 53:38.9 0:39.4 17:05/M
970 Maricela Rodriguez Sacramento CA 2045 34 F 166 30-39 53:01.4 54:51.2 1:49.7 17:06/M
971 Kourtney Hamilton Sacramento CA 1238 22 F 81 19-29 53:08.3 54:10.0 1:01.6 17:08/M
972 Ashley Kinstle Elk Grove CA 1373 29 F 82 19-29 53:08.5 54:10.0 1:01.4 17:08/M
973 Kathleen Arellano Elk Grove CA 845 28 F 83 19-29 53:09.6 54:38.5 1:28.8 17:09/M
974 Brandie Valine Sacramento CA 1900 40 F 131 40-49 53:09.7 53:55.7 0:46.0 17:09/M
975 John Kleber Sedalia CO 1375 74 M 10 70-79 53:19.0 54:37.2 1:18.2 17:12/M
976 Elizabeth Mohrherr Sacramento CA 1553 47 F 132 40-49 53:19.8 54:36.5 1:16.7 17:12/M
977 Laura Flournoy Sacramento CA 1140 38 F 167 30-39 53:20.6 54:10.8 0:50.2 17:12/M
978 Marisol Avina Sacramento CA 861 34 F 168 30-39 53:21.1 54:56.3 1:35.2 17:13/M
979 Nadia Leal-Carrillo Sacramento CA 2043 33 F 169 30-39 53:21.7 54:56.5 1:34.8 17:13/M
980 Eric Duren Galt CA 2161 52 M 50 50-59 53:29.1 53:59.1 0:30.0 17:15/M
981 Willow Holloway Orinda CA 1313 19 F 84 19-29 53:33.5 54:59.8 1:26.3 17:16/M
982 Chris Brewster Auburn CA 916 47 M 63 40-49 53:33.7 55:09.7 1:35.9 17:16/M
983 Ryan Stora Sacramento CA 1845 28 M 36 19-29 53:34.4 54:47.0 1:12.6 17:17/M
984 Rachel Carlson-Loduca Sacramento AR 968 27 F 85 19-29 53:34.4 54:47.1 1:12.7 17:17/M
985 Sue Sheriff Meadow Vista CA 1788 60 F 44 60-69 53:34.6 55:08.8 1:34.2 17:17/M
986 Judy Blow Elk Grove CA 892 46 F 133 40-49 53:35.0 53:35.0 17:17/M
987 Noelle Nichols Sacramento CA 1595 38 F 170 30-39 53:38.1 54:49.8 1:11.7 17:18/M
988 Jason Stora Sacramento CA 1844 34 M 65 30-39 53:38.8 54:49.9 1:11.0 17:18/M
989 Milly Nunez Tracy CA 1607 34 F 171 30-39 53:42.3 58:17.0 4:34.7 17:19/M
990 Paloma Sanchez Tracy CA 1749 19 F 86 19-29 53:43.1 58:17.3 4:34.1 17:20/M
991 Lou Zamudio Citrus Heights CA 1996 31 M 66 30-39 53:43.1 55:22.5 1:39.4 17:20/M
992 Zoe Morris Sacramento CA 1568 6 F 86 1-12 53:43.3 55:44.9 2:01.5 17:20/M
993 Alice Yu Davis CA 1991 38 F 172 30-39 53:47.5 55:06.3 1:18.7 17:21/M
994 Arlyn Johnson Sacramento CA 1353 16 F 12 16-18 53:49.2 55:06.8 1:17.5 17:22/M
995 Marinda Johnson-Gorman Sacramento CA 1354 31 F 173 30-39 53:49.4 55:06.4 1:17.0 17:22/M
996 Jim Fabionar Sacramento CA 1120 67 M 23 60-69 53:57.3 55:01.1 1:03.8 17:24/M
997 April Fabionar West Sacramento CA 1119 34 F 174 30-39 53:57.5 55:01.1 1:03.6 17:24/M
998 Julie Skelton Elk Grove CA 1798 38 F 175 30-39 53:58.0 55:05.0 1:07.0 17:25/M
999 Maria Fabionar Sacramento CA 1121 67 F 45 60-69 53:58.1 55:02.2 1:04.1 17:25/M
1000 Barbara Hintz Citrus Heights CA 1300 34 F 176 30-39 53:59.0 54:24.5 0:25.4 17:25/M
 
Place Name City Bib No Age Gender Age Group Chip Time Gun Time Chip Diff Pace
1001 Judy Lucas Sacramento CA 1459 38 F 177 30-39 54:00.1 55:07.4 1:07.2 17:25/M
1002 Lisa Lipps Sacramento CA 2032 52 F 75 50-59 54:03.7 54:51.2 0:47.4 17:26/M
1003 Jennifer Lewin Rio Linda CA 1430 29 F 87 19-29 54:04.4 55:35.6 1:31.2 17:26/M
1004 Amber Guerra Rio Linda CA 1223 27 F 88 19-29 54:05.7 55:35.8 1:30.1 17:27/M
1005 Patricia Penwell Rio Linda CA 1637 53 F 76 50-59 54:06.7 55:39.1 1:32.4 17:27/M
1006 Alex Emmons Rio Linda CA 1104 22 F 89 19-29 54:07.2 55:39.2 1:32.0 17:27/M
1007 Bob Clark Lincoln CA 1004 45 M 64 40-49 54:10.6 55:16.3 1:05.6 17:28/M
1008 Karen Murray Elk Grove CA 2194 51 F 77 50-59 54:14.3 54:46.3 0:31.9 17:30/M
1009 Sheila Kennedy Sacramento CA 2191 53 F 78 50-59 54:15.1 54:46.7 0:31.6 17:30/M
1010 Patricia Stein-Freer Sacramento CA 1835 57 F 79 50-59 54:15.6 55:29.6 1:14.0 17:30/M
1011 Nancy Mathews Chico CA 1493 51 F 80 50-59 54:16.7 54:45.4 0:28.6 17:30/M
1012 Anne Hiney Yuba City CA 1299 51 F 81 50-59 54:18.1 54:47.0 0:28.9 17:31/M
1013 George Billingsley Loomis CA 887 92 M 3 80-99 54:25.9 55:35.1 1:09.1 17:33/M
1014 Kathleen Churchill Woodland CA 1002 30 F 178 30-39 54:27.1 55:06.5 0:39.3 17:34/M
1015 Debra Williams Sacramento CA 2033 60 F 46 60-69 54:29.7 55:16.6 0:46.9 17:35/M
1016 Jared Lewin Rio Linda CA 1429 36 M 67 30-39 54:31.5 56:04.2 1:32.6 17:35/M
1017 Matt Hansen Lockeford CA 1240 28 M 37 19-29 54:34.2 55:58.3 1:24.0 17:36/M
1018 Katrina Wong Davis CA 1973 30 F 179 30-39 54:47.8 56:55.7 2:07.8 17:40/M
1019 Ashley Johnson Elk Grove CA 1347 15 F 38 13-15 54:54.0 55:24.4 0:30.4 17:43/M
1020 Debbie Johnson Elk Grove CA 1349 42 F 134 40-49 54:54.2 55:24.3 0:30.0 17:43/M
1021 Laura Avelar Grass Valley CA 860 47 F 135 40-49 54:57.2 56:32.9 1:35.7 17:44/M
1022 Julia Avelar Grass Valley CA 859 13 F 39 13-15 54:58.6 56:32.9 1:34.3 17:44/M
1023 Shannon Guthrie Carmichael CA 1229 36 F 180 30-39 55:00.9 55:19.6 0:18.6 17:45/M
1024 Sharon Griffith Carmichael CA 1218 66 F 47 60-69 55:01.8 55:20.5 0:18.7 17:45/M
1025 Lily Flores Sacramento CA 2114 5 F 87 1-12 55:04.8 55:49.8 0:44.9 17:46/M
1026 Lino Soto Sacramento CA 2116 50 M 51 50-59 55:05.7 55:50.8 0:45.0 17:46/M
1027 Marvin Isip Tracy CA 1338 38 M 68 30-39 55:06.7 55:40.4 0:33.7 17:46/M
1028 Jason Thornton Rocklin CA 1870 40 M 65 40-49 55:10.2 1:03:41.3 8:31.0 17:48/M
1029 Collin Mann Roseville CA 1482 6 M 56 1-12 55:10.7 1:03:41.4 8:30.6 17:48/M
1030 Kaci Thornton Rocklin CA 1871 8 F 88 1-12 55:10.9 1:03:42.1 8:31.1 17:48/M
1031 Greg Mann Roseville CA 1484 37 M 69 30-39 55:11.5 1:03:42.6 8:31.0 17:48/M
1032 Tara Larson Fort Bragg CA 1413 42 F 136 40-49 55:11.9 55:54.7 0:42.8 17:48/M
1033 Robin Durkee Carmichael CA 1095 40 F 137 40-49 55:12.3 55:54.8 0:42.5 17:48/M
1034 Michelle Abe West Sacramento CA 803 48 F 138 40-49 55:14.0 55:57.1 0:43.1 17:49/M
1035 Paul Abe West Sacramento CA 804 51 M 52 50-59 55:14.0 55:58.3 0:44.2 17:49/M
1036 Debbie Luna Sacramento CA 2070 59 F 82 50-59 55:26.5 56:29.7 1:03.2 17:53/M
1037 Lydia Phillips West Sacramento CA 1645 57 F 83 50-59 55:27.5 56:29.9 1:02.3 17:53/M
1038 Christine Campbell Sacramento CA 962 62 F 48 60-69 55:31.4 56:02.7 0:31.3 17:55/M
1039 Zachary Morris Sacramento CA 1567 6 M 57 1-12 55:37.6 57:38.8 2:01.1 17:56/M
1040 Laila Morris Sacramento CA 1565 47 F 139 40-49 55:38.5 57:39.0 2:00.5 17:57/M
1041 Zach Hirschi Lincoln CA 1305 27 M 38 19-29 55:42.3 56:18.0 0:35.7 17:58/M
1042 Lindsay Littlefield West Sacramento CA 1442 30 F 181 30-39 55:44.4 56:50.3 1:05.9 17:59/M
1043 Jason Littlefield West Sacramento CA 1441 30 M 70 30-39 55:45.1 56:50.7 1:05.6 17:59/M
1044 Lou Morris Sacramento CA 1566 49 M 66 40-49 55:45.4 55:45.4 17:59/M
1045 Osa Hall Vacaville CA 1235 55 F 84 50-59 55:46.9 57:15.1 1:28.1 17:59/M
1046 Liz Parsley-Zamudio Citrus Heights CA 1630 29 F 90 19-29 55:54.8 57:33.4 1:38.5 18:02/M
1047 Dave Hirschi Lincoln CA 1304 50 M 53 50-59 55:55.7 56:30.3 0:34.5 18:02/M
1048 Nicola Clayton Davis CA 1009 30 F 182 30-39 55:55.9 58:04.1 2:08.2 18:02/M
1049 Elizabeth Elias Sacramento CA 1099 31 F 183 30-39 55:59.9 56:59.5 0:59.6 18:04/M
1050 Gracy Tracy Sacramento CA 1887 17 F 13 16-18 56:10.8 57:07.5 0:56.6 18:07/M
1051 Bibiana Alvarez Sacramento CA 823 27 F 91 19-29 56:12.7 57:09.3 0:56.5 18:08/M
1052 Kim Stafford West Sacramento CA 1830 50 F 85 50-59 56:22.6 57:07.4 0:44.8 18:11/M
1053 Michelle Stafford West Sacramento CA 1831 46 F 140 40-49 56:23.0 57:07.5 0:44.4 18:11/M
1054 Anna Vigil Sacramento CA 1914 11 F 89 1-12 56:31.1 56:31.1 18:14/M
1055 Cara Covington Folsom CA 2108 11 F 90 1-12 56:31.2 56:31.2 18:14/M
1056 Sofia Vigil Sacramento CA 1917 9 F 91 1-12 56:32.1 56:32.1 18:14/M
1057 Lawrence Vigil Sacramento CA 1916 49 M 67 40-49 56:32.2 56:32.2 18:14/M
1058 Denise Bell Sacramento CA 876 57 F 86 50-59 56:39.4 57:37.7 0:58.3 18:16/M
1059 Breanne Parsley Lincoln CA 1628 27 F 92 19-29 56:51.6 57:32.5 0:40.9 18:20/M
1060 Greg Dean Rancho Murieta CA 1067 32 M 71 30-39 56:55.8 58:18.9 1:23.1 18:22/M
1061 Laurel Garrison Vacaville CA 1178 58 F 87 50-59 56:57.2 57:57.6 1:00.3 18:22/M
1062 Joy Holleran Vacaville CA 1310 57 F 88 50-59 56:57.4 57:57.6 1:00.2 18:22/M
1063 Elizabeth Dean Rancho Murieta CA 1066 32 F 184 30-39 56:57.7 58:20.0 1:22.3 18:22/M
1064 Jeff Clark Sacramento CA 1005 37 M 72 30-39 57:01.5 57:01.5 18:24/M
1065 Sharon Everett Sacramento CA 1117 41 F 141 40-49 57:04.5 58:11.2 1:06.6 18:25/M
1066 Lisa Mitchell Sacramento CA 1549 48 F 142 40-49 57:05.3 58:34.6 1:29.2 18:25/M
1067 Leonor Nunez Tracy CA 2085 66 F 49 60-69 57:05.3 1:01:44.8 4:39.4 18:25/M
1068 Joy Kosman West Sacramento CA 1391 50 F 89 50-59 57:05.4 58:34.4 1:28.9 18:25/M
1069 Carole Jacoby Sacramento CA 1341 68 F 50 60-69 57:05.7 58:12.1 1:06.4 18:25/M
1070 Julieanne Gust Tracy CA 1227 52 F 90 50-59 57:09.5 1:01:45.2 4:35.6 18:26/M
1071 Rebecca Watermolen Elk Grove CA 1931 40 F 143 40-49 57:12.0 57:46.7 0:34.7 18:27/M
1072 Lorena Sanchez Tracy CA 1748 43 F 144 40-49 57:12.1 1:01:46.9 4:34.7 18:27/M
1073 Brynna Herbert Sacramento CA 1281 26 F 93 19-29 57:14.9 58:22.6 1:07.6 18:28/M
1074 Janet White Granite Bay CA 1952 54 F 91 50-59 57:16.1 58:23.2 1:07.0 18:28/M
1075 Heather Stewart Sacramento CA 1839 20 F 94 19-29 57:17.2 58:14.7 0:57.4 18:29/M
1076 Mickey Martin Orangevale CA 1489 23 M 39 19-29 57:17.9 58:15.0 0:57.0 18:29/M
1077 Nancie Moisan Carmichael CA 2057 54 F 92 50-59 57:35.6 58:15.4 0:39.8 18:35/M
1078 Emma Barber Sacramento CA 865 28 F 95 19-29 57:36.0 58:15.4 0:39.4 18:35/M
1079 Eliseo Nunez Tracy CA 2086 68 M 24 60-69 57:40.7 1:02:24.2 4:43.5 18:36/M
1080 Anna Peterson Roseville CA 1644 57 F 93 50-59 57:46.0 58:31.9 0:45.8 18:38/M
1081 Tracy Ford Sacramento CA 1146 47 F 145 40-49 57:46.3 58:31.8 0:45.4 18:38/M
1082 Lilliana Stojic Sacramento CA 1843 46 F 146 40-49 58:03.9 59:00.4 0:56.4 18:44/M
1083 Daniela Borovnica Sacramento CA 901 46 F 147 40-49 58:05.8 59:01.8 0:56.0 18:44/M
1084 Joy Normand North Highlands CA 1600 52 F 94 50-59 58:12.0 59:07.3 0:55.3 18:46/M
1085 King Tunson, Jr. North Highlands CA 1891 19 M 40 19-29 58:12.0 59:07.5 0:55.5 18:46/M
1086 Latoy Hoskins Sacramento CA 1318 34 F 185 30-39 58:15.2 59:10.4 0:55.2 18:47/M
1087 Sarah Carson Antelope CA 973 32 F 186 30-39 58:17.5 59:11.5 0:53.9 18:48/M
1088 Peggy James-Pearson Rancho Cordova CA 1343 52 F 95 50-59 58:17.9 59:32.3 1:14.3 18:48/M
1089 Sharon Carson Antelope CA 974 23 F 96 19-29 58:18.2 59:11.0 0:52.7 18:48/M
1090 Richard Pearson Rancho Cordova CA 1635 48 M 68 40-49 58:18.8 59:32.7 1:13.8 18:48/M
1091 Christine Tang Rancho Cordova CA 1859 32 F 187 30-39 58:27.9 1:00:22.0 1:54.1 18:51/M
1092 Rachael Chavez Reno NV 988 36 F 188 30-39 58:30.9 59:47.3 1:16.3 18:52/M
1093 Theresa Taliaferro Sacramento AR 1858 47 F 148 40-49 58:31.5 59:45.3 1:13.8 18:53/M
1094 Molly Greene Sacramento CA 1214 45 F 149 40-49 58:32.8 59:47.4 1:14.6 18:53/M
1095 Jasmine Thompson Sacramento CA 2011 35 F 189 30-39 58:33.8 59:47.8 1:14.0 18:53/M
1096 Heather Gandy Sacramento CA 1173 27 F 97 19-29 58:34.4 59:39.1 1:04.6 18:54/M
1097 Kaylee Edwards Reno NV 1098 16 F 14 16-18 58:36.6 59:46.7 1:10.0 18:54/M
1098 Helen Gutierrez Rancho Cordova CA 1230 62 F 51 60-69 58:43.4 59:36.0 0:52.5 18:56/M
1099 Diana Schult Sacramento CA 1769 40 F 150 40-49 58:49.8 59:55.2 1:05.4 18:58/M
1100 Letecia Fujimori Sacramento CA 1161 58 F 96 50-59 58:49.8 59:37.9 0:48.0 18:58/M
 
Place Name City Bib No Age Gender Age Group Chip Time Gun Time Chip Diff Pace
1101 Susan Saika Elk Grove CA 1740 47 F 151 40-49 58:49.8 59:38.0 0:48.1 18:58/M
1102 Laura Quezada Fair Oaks CA 1673 61 F 52 60-69 58:49.9 1:00:03.0 1:13.1 18:58/M
1103 Sophia Schult Sacramento CA 1770 5 F 92 1-12 58:50.3 59:54.4 1:04.0 18:59/M
1104 Gretchen Jung Sacramento CA 1360 69 F 53 60-69 58:55.1 59:58.8 1:03.7 19:00/M
1105 Pj Jones Sacramento CA 1357 61 F 54 60-69 58:57.7 1:00:01.0 1:03.2 19:01/M
1106 Katie Madruga Sacramento CA 1470 42 F 152 40-49 59:03.2 1:00:50.9 1:47.7 19:03/M
1107 Kris Byrne Sacramento CA 957 50 F 97 50-59 59:03.7 1:00:51.5 1:47.8 19:03/M
1108 Chris Laird Sacramento CA 2054 24 M 41 19-29 59:18.2 1:00:56.8 1:38.6 19:08/M
1109 Bill Schult Sacramento CA 1768 42 M 69 40-49 59:25.1 1:00:30.8 1:05.6 19:10/M
1110 Jackie Carpenter Cameron Park CA 970 48 F 153 40-49 59:31.9 1:00:38.5 1:06.5 19:12/M
1111 Jim Abshear Fair Oaks CA 2120 52 M 54 50-59 59:32.2 1:00:44.9 1:12.7 19:12/M
1112 Kathryn Ford Fair Oaks CA 1145 58 F 98 50-59 59:33.1 1:00:40.2 1:07.0 19:13/M
1113 Leslie Lindsey Gold River CA 1439 57 F 99 50-59 59:33.1 1:00:39.8 1:06.6 19:13/M
1114 Andrew Paisley Elk Grove CA 2119 52 M 55 50-59 59:38.6 1:00:48.2 1:09.5 19:14/M
1115 Arthur Collord Sacramento CA 2154 13 M 31 13-15 59:39.5 1:00:40.0 1:00.4 19:15/M
1116 Michelle Shestek Folsom CA 2238 47 F 154 40-49 59:44.4 1:00:46.4 1:01.9 19:16/M
1117 Craig Abshear Elk Grove CA 809 50 M 56 50-59 59:45.2 1:00:48.3 1:03.0 19:16/M
1118 Marcelle Abshear Elk Grove CA 810 46 F 155 40-49 59:47.8 1:00:50.6 1:02.7 19:17/M
1119 Barbara Guthrie Elk Grove CA 1228 69 F 55 60-69 59:48.3 1:00:52.0 1:03.7 19:17/M
1120 Greg Douglas Sacramento CA 1080 37 M 73 30-39 59:53.8 1:01:44.0 1:50.2 19:19/M
1121 Andrew Freedman Elk Grove CA 1153 16 M 12 16-18 59:55.4 1:00:51.5 0:56.0 19:20/M
1122 Kelli Milam Olivehurst CA 1534 44 F 156 40-49 1:00:03.6 1:00:53.6 0:49.9 19:22/M
1123 Juliana Harris Escondido CA 1250 11 F 93 1-12 1:00:11.5 1:01:10.3 0:58.8 19:25/M
1124 Gail Harris El Dorado Hills CA 1249 73 F 5 70-79 1:00:11.5 1:01:10.1 0:58.5 19:25/M
1125 Cathy Curiel Sacramento CA 1043 47 F 157 40-49 1:00:15.1 1:01:37.9 1:22.7 19:26/M
1126 Cathie Anderson Sacramento CA 830 49 F 158 40-49 1:00:19.3 1:03:02.5 2:43.1 19:27/M
1127 Diana Gomez Citrus Heights CA 2129 34 F 190 30-39 1:00:23.9 1:01:17.2 0:53.3 19:29/M
1128 Diana Burdick Rancho Cordova CA 945 59 F 100 50-59 1:00:30.7 1:01:53.3 1:22.6 19:31/M
1129 Delia Curiel Rancho Cordova CA 1044 80 F 1 80-99 1:00:30.8 1:01:53.4 1:22.5 19:31/M
1130 Nicole Cardoza Sacramento CA 966 34 F 191 30-39 1:00:31.0 1:03:15.2 2:44.2 19:31/M
1131 Mary Ann Bristow Sacramento CA 925 64 F 56 60-69 1:00:35.7 1:01:37.7 1:02.0 19:33/M
1132 Anne Cavanagh Elk Grove CA 983 60 F 57 60-69 1:00:36.1 1:01:37.8 1:01.7 19:33/M
1133 Kylie Olsen Rocklin CA 1611 10 F 94 1-12 1:00:37.3 1:01:32.5 0:55.2 19:33/M
1134 Dale Stradford Sacramento CA 2055 62 M 25 60-69 1:00:39.6 1:02:20.5 1:40.8 19:34/M
1135 Hayden Erkenbrecher Roclin CA 1112 10 M 58 1-12 1:00:41.5 1:01:36.5 0:54.9 19:35/M
1136 Elizabeth Stradford Sacramento CA 2056 23 F 98 19-29 1:00:44.8 1:02:23.2 1:38.3 19:35/M
1137 Lisa Douglas Sacramento CA 1081 33 F 192 30-39 1:00:55.3 1:02:45.3 1:50.0 19:39/M
1138 Louise Delateur Davis CA 1069 62 F 58 60-69 1:01:09.5 1:02:00.9 0:51.3 19:44/M
1139 Debra Fabiani Davis CA 1118 59 F 101 50-59 1:01:10.1 1:02:00.4 0:50.3 19:44/M
1140 Lynne Coleman Sacramento CA 1013 62 F 59 60-69 1:01:15.7 1:03:03.6 1:47.9 19:45/M
1141 Joe Erkenbrecher Rocklin CA 1113 45 M 70 40-49 1:01:26.5 1:02:24.6 0:58.1 19:49/M
1142 Ben Hansen Carmichael CA 2111 11 M 59 1-12 1:01:28.8 1:03:07.5 1:38.7 19:50/M
1143 Yuko Matsui Davis CA 1496 20 F 99 19-29 1:01:34.5 1:02:25.1 0:50.5 19:52/M
1144 Minjoo Seo Davis CA 1776 23 F 100 19-29 1:01:35.3 1:02:25.6 0:50.2 19:52/M
1145 Brenden Hatcher Sacramento CA 1260 15 M 32 13-15 1:01:39.7 1:02:49.9 1:10.2 19:53/M
1146 Matthew Hatcher Sacramento CA 2039 20 M 42 19-29 1:01:40.9 1:02:50.9 1:09.9 19:54/M
1147 Kimberlee Hatcher Sacramento CA 1261 44 F 159 40-49 1:01:41.1 1:02:50.1 1:09.0 19:54/M
1148 Tim McKenna Antelope CA 1511 55 M 57 50-59 1:01:42.7 1:03:29.2 1:46.4 19:54/M
1149 April Skinner Rocklin CA 1799 51 F 102 50-59 1:01:50.6 1:02:49.1 0:58.4 19:57/M
1150 Jennifer Cook Sacramento CA 1020 42 F 160 40-49 1:01:52.0 1:03:37.4 1:45.4 19:57/M
1151 Shawn Keller Acampo CA 1367 31 M 74 30-39 1:01:53.0 1:03:32.8 1:39.8 19:58/M
1152 Kirsten Appel Sacramento CA 842 43 F 161 40-49 1:01:53.1 1:03:36.5 1:43.4 19:58/M
1153 Samantha Brodehl Lodi CA 929 20 F 101 19-29 1:01:54.2 1:03:31.9 1:37.6 19:58/M
1154 Andrea Kennedy Sacramento CA 1371 59 F 103 50-59 1:01:56.0 1:03:04.9 1:08.8 19:59/M
1155 Rene Anderson Sacramento CA 834 53 M 58 50-59 1:01:56.3 1:03:04.9 1:08.6 19:59/M
1156 Tully Price Elk Grove CA 1666 78 M 11 70-79 1:01:56.6 1:03:01.1 1:04.5 19:59/M
1157 Patty Brodehl Lodi CA 928 47 F 162 40-49 1:01:57.1 1:03:34.4 1:37.2 19:59/M
1158 Linda Price Elk Grove CA 1665 68 F 60 60-69 1:01:57.9 1:03:02.3 1:04.3 19:59/M
1159 Tonya Gonzalez Sacramento CA 1203 43 F 163 40-49 1:01:57.9 1:02:55.9 0:58.0 19:59/M
1160 Sarah Gonzalez Sacramento CA 1202 14 F 40 13-15 1:01:58.0 1:02:56.0 0:58.0 19:59/M
1161 Melissa Collord Sacramento CA 2140 46 F 164 40-49 1:01:58.6 1:02:55.2 0:56.6 19:59/M
1162 Judy Maben Sacramento CA 1465 71 F 6 70-79 1:02:00.8 1:03:03.7 1:02.8 20:00/M
1163 Gary Chabot Elk Grove CA 984 44 M 71 40-49 1:02:00.8 1:02:58.9 0:58.0 20:00/M
1164 Patricia Hines Sacramento CA 1298 66 F 61 60-69 1:02:01.9 1:03:04.6 1:02.6 20:00/M
1165 Barbara Goodrich Auburn CA 1206 62 F 62 60-69 1:02:01.9 1:02:53.2 0:51.3 20:00/M
1166 Kristen Klink Auburn CA 1380 38 F 193 30-39 1:02:09.6 1:03:01.4 0:51.7 20:03/M
1167 Diana Esguerra Sacramento CA 1115 59 F 104 50-59 1:02:10.6 1:02:10.6 20:03/M
1168 Little Green Alien Sacramento CA 820 67 M 26 60-69 1:02:11.6 1:02:11.6 20:04/M
1169 Jorge Gonzales Fair Oaks CA 1198 48 M 72 40-49 1:02:25.8 1:04:12.9 1:47.0 20:08/M
1170 Dorothea Popp West Sacramento CA 1657 29 F 102 19-29 1:02:28.0 1:03:16.3 0:48.3 20:09/M
1171 Margaret Howell Vacaville CA 1323 49 F 165 40-49 1:02:29.0 1:03:17.2 0:48.1 20:09/M
1172 Monique Mayfield Elk Grove CA 1500 44 F 166 40-49 1:02:36.0 1:03:32.6 0:56.5 20:12/M
1173 Lisa Newman Orange CA 2228 42 F 167 40-49 1:02:48.0 1:04:29.8 1:41.8 20:15/M
1174 Jennifer Marsh-Sharon Sacramento CA 2230 42 F 168 40-49 1:02:57.4 1:04:41.3 1:43.9 20:18/M
1175 Sean Dowd Sacramento CA 1082 38 M 75 30-39 1:02:57.9 1:04:27.6 1:29.7 20:18/M
1176 Minnie Chabot Elk Grove CA 985 42 F 169 40-49 1:02:58.0 1:02:58.0 20:19/M
1177 Amber White Antelope CA 1949 33 F 194 30-39 1:02:59.1 1:04:17.5 1:18.3 20:19/M
1178 Ian Brown Sacramento CA 935 24 M 43 19-29 1:03:00.2 1:04:24.1 1:23.9 20:19/M
1179 Jessica Dunham Sacramento CA 1090 24 F 103 19-29 1:03:00.4 1:04:24.7 1:24.3 20:19/M
1180 Jenna Kline Sacramento CA 1377 30 F 195 30-39 1:03:01.3 1:04:26.3 1:25.0 20:20/M
1181 Greg Kline Chico CA 1376 60 M 27 60-69 1:03:02.4 1:04:26.4 1:23.9 20:20/M
1182 Matt Villarreal West Sacramento CA 1919 31 M 76 30-39 1:03:06.5 1:04:39.7 1:33.1 20:21/M
1183 Tamara Smith Elk Grove CA 2209 30 F 196 30-39 1:03:06.8 1:04:28.6 1:21.7 20:21/M
1184 Nancy Palmer Salinas CA 1619 57 F 105 50-59 1:03:06.9 1:04:39.0 1:32.0 20:21/M
1185 Mary Colburn West Sacramento CA 1012 63 F 63 60-69 1:03:07.0 1:04:39.8 1:32.8 20:22/M
1186 Colleen Villarreal West Sacramento CA 1918 28 F 104 19-29 1:03:07.5 1:04:40.4 1:32.9 20:22/M
1187 Vinnie Villarreal West Sacramento CA 1920 2 M 60 1-12 1:03:08.0 1:04:39.9 1:31.9 20:22/M
1188 Tiffany Smith Elk Grove CA 2210 28 F 105 19-29 1:03:08.4 1:04:28.6 1:20.2 20:22/M
1189 Julie Bozick Rancho Cordova CA 905 63 F 64 60-69 1:03:09.1 1:04:29.5 1:20.4 20:22/M
1190 Kellie Raines Sacramento, Ca CA 1679 44 F 170 40-49 1:03:18.1 1:04:31.8 1:13.6 20:25/M
1191 Cherri Peters Sacramento CA 1642 53 F 106 50-59 1:03:20.8 1:04:07.5 0:46.7 20:26/M
1192 Rose Ralich Sacramento CA 2083 60 F 65 60-69 1:03:24.1 1:04:23.1 0:59.0 20:27/M
1193 Shannon Rynearson Sacramento CA 1738 44 F 171 40-49 1:03:24.3 1:04:10.4 0:46.1 20:27/M
1194 Jasenka Stojic Sacramento CA 1842 70 F 7 70-79 1:03:28.2 1:04:25.0 0:56.8 20:28/M
1195 Robin Shaddle San Jose CA 1778 38 F 197 30-39 1:03:38.3 1:05:45.7 2:07.4 20:32/M
1196 Marcia Sultagi Auburn CA 1852 66 F 66 60-69 1:03:43.8 1:05:40.1 1:56.3 20:33/M
1197 Larry Bricker Auburn CA 918 66 M 28 60-69 1:03:44.7 1:05:41.6 1:56.9 20:34/M
1198 Ann Abell Sacramento CA 805 39 F 198 30-39 1:03:50.7 1:05:34.7 1:44.0 20:35/M
1199 Stephanie Corpuz Roseville CA 1026 39 F 199 30-39 1:03:52.2 1:05:34.8 1:42.5 20:36/M
1200 Neil Cohen Sacramento CA 2005 33 M 77 30-39 1:04:01.2 1:05:23.5 1:22.2 20:39/M
 
Place Name City Bib No Age Gender Age Group Chip Time Gun Time Chip Diff Pace
1201 Stephen Sweeney Sacramento CA 1856 37 M 78 30-39 1:04:05.5 1:05:27.1 1:21.6 20:40/M
1202 Toni Groth Sacramento CA 1220 52 F 107 50-59 1:04:06.3 1:05:38.4 1:32.0 20:41/M
1203 Casey Knittel Davis CA 1383 34 F 200 30-39 1:04:06.7 1:05:27.4 1:20.6 20:41/M
1204 Amy Galindo Sacramento CA 1167 25 F 106 19-29 1:04:08.0 1:05:40.4 1:32.4 20:41/M
1205 Rachel Hotz Sacramento CA 1321 21 F 107 19-29 1:04:08.1 1:04:59.8 0:51.6 20:41/M
1206 Shandia Bolgle Sacramento CA 2122 22 F 108 19-29 1:04:09.7 1:05:40.4 1:30.7 20:42/M
1207 Becka Robinson Sacramento CA 1713 15 F 41 13-15 1:04:19.0 1:04:36.0 0:16.9 20:45/M
1208 Carolina Queener Sacramento CA 1672 16 F 15 16-18 1:04:19.4 1:04:36.5 0:17.0 20:45/M
1209 Bonita Hotz Sacramento CA 1320 57 F 108 50-59 1:04:20.5 1:05:12.7 0:52.2 20:45/M
1210 Lynda Barber Sacramento CA 2242 56 F 109 50-59 1:04:27.4 1:06:05.6 1:38.2 20:47/M
1211 Seana Taber Cameron Park CA 2080 44 F 172 40-49 1:04:29.3 1:06:05.4 1:36.0 20:48/M
1212 Unknown Partic. 1011 1011 M 2 0- 0 1:04:33.5 1:05:53.1 1:19.5 20:49/M
1213 Kimberly Lueb Elk Grove CA 2128 41 F 173 40-49 1:04:39.5 1:05:32.7 0:53.2 20:51/M
1214 Lewis Hiigel Carmichael CA 1296 24 M 44 19-29 1:04:51.7 1:06:08.9 1:17.1 20:55/M
1215 Kimberly Fair Antelope CA 1127 23 F 109 19-29 1:05:33.8 1:07:23.8 1:49.9 21:09/M
1216 Patricia Stayton North Highlands CA 1834 53 F 110 50-59 1:05:37.0 1:07:25.6 1:48.6 21:10/M
1217 Zoe Pham Sacramento CA 2207 6 F 95 1-12 1:05:49.4 1:06:23.6 0:34.1 21:14/M
1218 Sara Miles West Sacramento CA 1537 35 F 201 30-39 1:05:51.8 1:07:17.8 1:26.0 21:15/M
1219 John Miles West Sacramento CA 1535 37 M 79 30-39 1:05:54.3 1:07:17.9 1:23.5 21:15/M
1220 Amy Gooch Citrus Heights CA 1204 40 F 174 40-49 1:06:28.2 1:07:33.4 1:05.2 21:26/M
1221 Stephanie James Sacramento CA 1342 37 F 202 30-39 1:06:28.6 1:07:33.5 1:04.8 21:26/M
1222 Tom Fanlo Reno NV 1131 52 M 59 50-59 1:06:32.8 1:07:42.5 1:09.6 21:28/M
1223 Julia Fanlo Reno NV 1129 34 F 203 30-39 1:06:33.1 1:07:43.3 1:10.2 21:28/M
1224 Onetta Fanlo Reno NV 1130 57 F 111 50-59 1:06:33.2 1:07:41.1 1:07.9 21:28/M
1225 Charles Fanlo Reno NV 1128 32 M 80 30-39 1:06:34.0 1:07:42.6 1:08.6 21:28/M
1226 Lauren Hiigel Carmichael CA 1295 29 F 110 19-29 1:06:56.0 1:08:14.3 1:18.3 21:35/M
1227 Nannette Henderson Sacramento CA 1277 57 F 112 50-59 1:07:03.0 1:07:03.0 21:38/M
1228 Priscilla Rivera Lincoln CA 1710 32 F 204 30-39 1:07:12.8 1:08:02.9 0:50.0 21:41/M
1229 June Leicht Lincoln CA 1420 52 F 113 50-59 1:07:14.3 1:08:04.9 0:50.6 21:41/M
1230 Doris Myers Yuba City CA 1582 62 F 67 60-69 1:07:33.2 1:08:52.1 1:18.9 21:47/M
1231 Dianne Liles Woodland CA 1435 69 F 68 60-69 1:07:52.8 1:08:54.2 1:01.4 21:54/M
1232 Susan Winston Sacramento CA 1965 68 F 69 60-69 1:07:55.1 1:08:55.4 1:00.2 21:55/M
1233 Teresa Herrick Folsom CA 1289 40 F 175 40-49 1:07:57.8 1:08:48.7 0:50.9 21:55/M
1234 Christopher Rhodes Stockton CA 1703 43 M 73 40-49 1:09:32.6 1:23:02.1 13:29.5 22:26/M
1235 Bob Provenzano Rocklin CA 1668 62 M 29 60-69 1:11:39.4 1:13:16.0 1:36.5 23:07/M
1236 Nikki Linde Rocklin CA 1437 51 F 114 50-59 1:11:39.6 1:13:15.9 1:36.2 23:07/M
1237 Brian Scharfenberger Auburn CA 1757 29 M 45 19-29 1:12:08.6 1:12:42.0 0:33.3 23:16/M
1238 Kirk Weakland Reno NV 1936 49 M 74 40-49 1:12:11.1 1:12:44.6 0:33.4 23:17/M
1239 Hailey Flores Sacramento CA 2113 4 F 96 1-12 1:12:26.3 1:13:12.8 0:46.4 23:22/M
1240 Andrea Dimaggio Sacramento CA 2117 54 F 115 50-59 1:12:26.5 1:13:12.6 0:46.1 23:22/M
1241 Brandon Morgan Elk Grove CA 1562 30 M 81 30-39 1:13:04.6 1:14:49.5 1:44.9 23:34/M
1242 Julianne Morgan Elk Grove CA 1564 27 F 111 19-29 1:13:13.7 1:14:57.2 1:43.4 23:37/M
1243 Candice Bevill Elk Grove CA 2006 58 F 116 50-59 1:13:24.2 1:15:09.5 1:45.3 23:41/M
1244 Jessica Jones Elk Grove CA 1356 29 F 112 19-29 1:13:38.9 1:15:22.2 1:43.2 23:45/M
1245 Alex Gonzales Fair Oaks CA 1196 7 M 61 1-12 1:14:37.3 1:16:23.1 1:45.7 24:04/M
1246 Cara Layne Fair Oaks CA 1415 39 F 205 30-39 1:15:29.7 1:17:17.2 1:47.5 24:21/M
1247 Maggie Layne Fair Oaks CA 1416 11 F 97 1-12 1:15:30.3 1:17:16.5 1:46.2 24:21/M
1248 Kendel Kelly Fair Oaks CA 1369 49 F 176 40-49 1:15:32.2 1:17:17.4 1:45.2 24:22/M
1249 Jennifer Gonzales Fair Oaks CA 1197 50 F 117 50-59 1:15:56.1 1:17:42.8 1:46.6 24:30/M
1250 Reuben Linker Fair Oaks CA 1440 79 M 12 70-79 1:15:56.3 1:17:42.4 1:46.1 24:30/M
1251 Erron Smooth Elk Grove CA 1812 36 M 82 30-39 1:41:04.8 1:41:04.8 32:36/M
1252 Patricia Smooth Elk Grove CA 1813 35 F 206 30-39 1:41:04.8 1:41:04.8 32:36/M
1253 Jeffrey Ang-Olson Sacramento CA 2102 46 M 75 40-49 1:42:21.4 1:42:21.4 33:01/M